Observation data for Hobbs on 04/23/2019      Previous  Date  Next       Current Mesonet Observations  Soil Data  Daily Summary Page  Observations in Plain Language
KHO1 230500Z 06006KT 14/13 A3006 RMK A01 T01370129  RH  095%=      5-min Rain = 0.01
KHO1 230501Z 07005KT 14/13 A3006 RMK A01 T01370129  RH  095%=      5-min Rain = 0
KHO1 230502Z 07006KT 14/13 A3006 RMK A01 T01370130  RH  095%=      5-min Rain = 0
KHO1 230503Z 07006KT 14/13 A3006 RMK A01 T01370130  RH  095%=      5-min Rain = 0
KHO1 230504Z 07005KT 14/13 A3006 RMK A01 T01370130  RH  095%=      5-min Rain = 0
KHO1 230505Z 07005KT 14/13 A3007 RMK A01 T01370130  RH  096%=      5-min Rain = 0.01
KHO1 230506Z 08006KT 14/13 A3007 RMK A01 T01370130  RH  096%=      5-min Rain = 0
KHO1 230507Z 08008KT 14/13 A3007 RMK A01 T01370130  RH  096%=      5-min Rain = 0
KHO1 230508Z 08007KT 14/13 A3007 RMK A01 T01360130  RH  096%=      5-min Rain = 0.01
KHO1 230509Z 08007KT 14/13 A3007 RMK A01 T01360130  RH  096%=      5-min Rain = 0
KHO1 230510Z 09006KT 14/13 A3008 RMK A01 T01360130  RH  096%=      5-min Rain = 0
KHO1 230511Z 09006G12KT 14/13 A3007 RMK A01 T01360131  RH  096%=      5-min Rain = 0
KHO1 230512Z 08006KT 14/13 A3007 RMK A01 T01360131  RH  096%=      5-min Rain = 0
KHO1 230513Z 07006KT 14/13 A3007 RMK A01 T01360131  RH  097%=      5-min Rain = 0
KHO1 230514Z 08005KT 14/13 A3008 RMK A01 T01360131  RH  097%=      5-min Rain = 0
KHO1 230515Z 08006KT 14/13 A3008 RMK A01 T01360131  RH  097%=      5-min Rain = 0
KHO1 230516Z 07006KT 14/13 A3008 RMK A01 T01360131  RH  097%=      5-min Rain = 0.01
KHO1 230517Z 07007KT 14/13 A3007 RMK A01 T01360131  RH  097%=      5-min Rain = 0
KHO1 230518Z 08007KT 14/13 A3007 RMK A01 T01360131  RH  097%=      5-min Rain = 0
KHO1 230519Z 07007KT 14/13 A3007 RMK A01 T01360131  RH  097%=      5-min Rain = 0
KHO1 230520Z 07007KT 14/13 A3007 RMK A01 T01360131  RH  097%=      5-min Rain = 0
KHO1 230521Z 07008KT 14/13 A3007 RMK A01 T01360131  RH  097%=      5-min Rain = 0
KHO1 230522Z 07008KT 14/13 A3007 RMK A01 T01360131  RH  097%=      5-min Rain = 0
KHO1 230523Z 08008KT 14/13 A3007 RMK A01 T01360131  RH  097%=      5-min Rain = 0.01
KHO1 230524Z 08007KT 14/13 A3007 RMK A01 T01350131  RH  097%=      5-min Rain = 0
KHO1 230525Z 08005KT 14/13 A3007 RMK A01 T01350131  RH  097%=      5-min Rain = 0
KHO1 230526Z 08005KT 14/13 A3007 RMK A01 T01360132  RH  097%=      5-min Rain = 0
KHO1 230527Z 08004KT 14/13 A3007 RMK A01 T01360132  RH  098%=      5-min Rain = 0
KHO1 230528Z 07006KT 14/13 A3007 RMK A01 T01360132  RH  098%=      5-min Rain = 0.01
KHO1 230529Z 08006KT 14/13 A3007 RMK A01 T01360132  RH  098%=      5-min Rain = 0
KHO1 230530Z 08005KT 14/13 A3007 RMK A01 T01360132  RH  098%=      5-min Rain = 0
KHO1 230531Z 08005KT 14/13 A3007 RMK A01 T01360132  RH  098%=      5-min Rain = 0
KHO1 230532Z 07005KT 14/13 A3008 RMK A01 T01360132  RH  098%=      5-min Rain = 0.01
KHO1 230533Z 08005KT 14/13 A3008 RMK A01 T01350133  RH  098%=      5-min Rain = 0
KHO1 230534Z 08006KT 14/13 A3008 RMK A01 T01350133  RH  098%=      5-min Rain = 0
KHO1 230535Z 08005KT 14/13 A3008 RMK A01 T01350132  RH  098%=      5-min Rain = 0
KHO1 230536Z 08005KT 14/13 A3008 RMK A01 T01350133  RH  098%=      5-min Rain = 0
KHO1 230537Z 07006KT 14/13 A3008 RMK A01 T01350133  RH  098%=      5-min Rain = 0
KHO1 230538Z 08005KT 14/13 A3008 RMK A01 T01350133  RH  098%=      5-min Rain = 0.01
KHO1 230539Z 07005KT 14/13 A3008 RMK A01 T01350133  RH  098%=      5-min Rain = 0
KHO1 230540Z 07006KT 14/13 A3008 RMK A01 T01350133  RH  099%=      5-min Rain = 0
KHO1 230541Z 07005KT 14/13 A3008 RMK A01 T01350133  RH  099%=      5-min Rain = 0
KHO1 230542Z 07006KT 14/13 A3008 RMK A01 T01350133  RH  099%=      5-min Rain = 0
KHO1 230543Z 07007KT 14/13 A3008 RMK A01 T01350133  RH  099%=      5-min Rain = 0.01
KHO1 230544Z 07005KT 14/13 A3008 RMK A01 T01350133  RH  099%=      5-min Rain = 0
KHO1 230545Z 07006KT 14/13 A3008 RMK A01 T01350133  RH  099%=      5-min Rain = 0
KHO1 230546Z 07007KT 14/13 A3007 RMK A01 T01350133  RH  099%=      5-min Rain = 0
KHO1 230547Z 07007KT 14/13 A3007 RMK A01 T01350133  RH  099%=      5-min Rain = 0
KHO1 230548Z 07007KT 14/13 A3007 RMK A01 T01350133  RH  099%=      5-min Rain = 0.01
KHO1 230549Z 07008KT 14/13 A3007 RMK A01 T01350133  RH  099%=      5-min Rain = 0
KHO1 230550Z 07007KT 14/13 A3007 RMK A01 T01350133  RH  099%=      5-min Rain = 0
KHO1 230551Z 07006KT 14/13 A3007 RMK A01 T01350134  RH  099%=      5-min Rain = 0
KHO1 230552Z 07006KT 14/13 A3007 RMK A01 T01350134  RH  099%=      5-min Rain = 0.01
KHO1 230553Z 06007KT 14/13 A3007 RMK A01 T01350134  RH  099%=      5-min Rain = 0
KHO1 230554Z 06007KT 14/13 A3006 RMK A01 T01350134  RH  099%=      5-min Rain = 0
KHO1 230555Z 06009KT 14/13 A3006 RMK A01 T01350134  RH  099%=      5-min Rain = 0.01
KHO1 230556Z 06008KT 14/13 A3006 RMK A01 T01350134  RH  099%=      5-min Rain = 0
KHO1 230557Z 06008KT 14/13 A3006 RMK A01 T01350134  RH  099%=      5-min Rain = 0
KHO1 230558Z 06008KT 14/13 A3006 RMK A01 T01350134  RH  099%=      5-min Rain = 0.01
KHO1 230559Z 05010KT 14/13 A3006 RMK A01 T01350134  RH  099%=      5-min Rain = 0
KHO1 230600Z 05010KT 14/13 A3005 RMK A01 T01350134  RH  099%=      5-min Rain = 0
KHO1 230601Z 05011KT 14/13 A3005 RMK A01 T01350134  RH  099%=      5-min Rain = 0.01
KHO1 230602Z 05012KT 13/13 A3005 RMK A01 T01340134  RH  099%=      5-min Rain = 0
KHO1 230603Z 05010KT 13/13 A3005 RMK A01 T01340134  RH  099%=      5-min Rain = 0
KHO1 230604Z 05011KT 13/13 A3004 RMK A01 T01340133  RH  100%=      5-min Rain = 0
KHO1 230605Z 05012KT 13/13 A3004 RMK A01 T01340133  RH  100%=      5-min Rain = 0
KHO1 230606Z 05010G15KT 13/13 A3004 RMK A01 T01340133  RH  100%=      5-min Rain = 0.01
KHO1 230607Z 06011KT 13/13 A3004 RMK A01 T01340133  RH  100%=      5-min Rain = 0
KHO1 230608Z 05010KT 13/13 A3004 RMK A01 T01340133  RH  100%=      5-min Rain = 0
KHO1 230609Z 05010KT 13/13 A3004 RMK A01 T01340133  RH  100%=      5-min Rain = 0
KHO1 230610Z 05011G17KT 13/13 A3004 RMK A01 T01340133  RH  100%=      5-min Rain = 0
KHO1 230611Z 06012KT 13/13 A3004 RMK A01 T01340133  RH  100%=      5-min Rain = 0
KHO1 230612Z 05009KT 13/13 A3005 RMK A01 T01340133  RH  100%=      5-min Rain = 0
KHO1 230613Z 05008KT 13/13 A3005 RMK A01 T01340133  RH  100%=      5-min Rain = 0
KHO1 230614Z 06006KT 13/13 A3006 RMK A01 T01340134  RH  100%=      5-min Rain = 0
KHO1 230615Z 06006G11KT 13/13 A3006 RMK A01 T01340134  RH  100%=      5-min Rain = 0
KHO1 230616Z 07005KT 13/13 A3007 RMK A01 T01340134  RH  100%=      5-min Rain = 0
KHO1 230617Z 06005KT 13/13 A3007 RMK A01 T01340134  RH  100%=      5-min Rain = 0
KHO1 230618Z 05006KT 13/13 A3007 RMK A01 T01340134  RH  100%=      5-min Rain = 0
KHO1 230619Z 06006KT 13/13 A3007 RMK A01 T01340134  RH  100%=      5-min Rain = 0
KHO1 230620Z 05005KT 13/13 A3007 RMK A01 T01340134  RH  100%=      5-min Rain = 0
KHO1 230621Z 04004KT 13/13 A3007 RMK A01 T01340134  RH  100%=      5-min Rain = 0
KHO1 230622Z 05006KT 14/13 A3008 RMK A01 T01350134  RH  100%=      5-min Rain = 0
KHO1 230623Z 05005KT 14/13 A3008 RMK A01 T01350134  RH  100%=      5-min Rain = 0
KHO1 230624Z 03004KT 14/13 A3008 RMK A01 T01350134  RH  100%=      5-min Rain = 0
KHO1 230625Z 03006KT 14/13 A3008 RMK A01 T01350134  RH  100%=      5-min Rain = 0
KHO1 230626Z 04005KT 14/14 A3008 RMK A01 T01350135  RH  100%=      5-min Rain = 0.01
KHO1 230627Z 03007KT 14/14 A3009 RMK A01 T01350135  RH  100%=      5-min Rain = 0
KHO1 230628Z 03007KT 14/13 A3008 RMK A01 T01350134  RH  100%=      5-min Rain = 0
KHO1 230629Z 03006KT 14/13 A3008 RMK A01 T01350134  RH  100%=      5-min Rain = 0
KHO1 230630Z 02007KT 14/13 A3008 RMK A01 T01350134  RH  100%=      5-min Rain = 0
KHO1 230631Z 01006KT 14/13 A3008 RMK A01 T01350134  RH  100%=      5-min Rain = 0
KHO1 230632Z 02005KT 14/14 A3008 RMK A01 T01350135  RH  100%=      5-min Rain = 0
KHO1 230633Z 03006KT 14/14 A3008 RMK A01 T01350135  RH  100%=      5-min Rain = 0
KHO1 230634Z 02005KT 14/14 A3008 RMK A01 T01350135  RH  100%=      5-min Rain = 0
KHO1 230635Z 35005KT 14/14 A3008 RMK A01 T01360135  RH  100%=      5-min Rain = 0
KHO1 230636Z 36004KT 14/14 A3008 RMK A01 T01360136  RH  100%=      5-min Rain = 0
KHO1 230637Z 34006KT 14/14 A3008 RMK A01 T01360136  RH  100%=      5-min Rain = 0
KHO1 230638Z 34006KT 14/14 A3008 RMK A01 T01360135  RH  100%=      5-min Rain = 0
KHO1 230639Z 32005KT 14/14 A3009 RMK A01 T01360135  RH  100%=      5-min Rain = 0
KHO1 230640Z 32007KT 14/14 A3009 RMK A01 T01360136  RH  100%=      5-min Rain = 0
KHO1 230641Z 33006KT 14/14 A3009 RMK A01 T01360136  RH  100%=      5-min Rain = 0
KHO1 230642Z 33007KT 14/14 A3009 RMK A01 T01370136  RH  100%=      5-min Rain = 0
KHO1 230643Z 33007KT 14/14 A3009 RMK A01 T01370136  RH  100%=      5-min Rain = 0
KHO1 230644Z 33006KT 14/14 A3009 RMK A01 T01360136  RH  100%=      5-min Rain = 0
KHO1 230645Z 34006KT 14/14 A3009 RMK A01 T01360136  RH  100%=      5-min Rain = 0
KHO1 230646Z 33007KT 14/14 A3009 RMK A01 T01370137  RH  100%=      5-min Rain = 0.01
KHO1 230647Z 34008KT 14/14 A3009 RMK A01 T01370136  RH  100%=      5-min Rain = 0
KHO1 230648Z 33010KT 14/14 A3009 RMK A01 T01370136  RH  100%=      5-min Rain = 0
KHO1 230649Z 34009KT 14/14 A3009 RMK A01 T01360136  RH  100%=      5-min Rain = 0
KHO1 230650Z 34010G15KT 14/14 A3009 RMK A01 T01360136  RH  100%=      5-min Rain = 0
KHO1 230651Z 34013KT 13/13 A3009 RMK A01 T01340133  RH  099%=      5-min Rain = 0.01
KHO1 230652Z 34014KT 13/13 A3009 RMK A01 T01310128  RH  098%=      5-min Rain = 0
KHO1 230653Z 34014KT 13/12 A3009 RMK A01 T01290123  RH  096%=      5-min Rain = 0.02
KHO1 230654Z 35011KT 13/12 A3009 RMK A01 T01270121  RH  096%=      5-min Rain = 0.01
KHO1 230655Z 00011KT 13/12 A3008 RMK A01 T01260120  RH  096%=      5-min Rain = 0.01
KHO1 230656Z 02013KT 12/12 A3008 RMK A01 T01240120  RH  097%=      5-min Rain = 0.02
KHO1 230657Z 03012KT 12/12 A3007 RMK A01 T01240120  RH  097%=      5-min Rain = 0
KHO1 230658Z 03011KT 12/12 A3007 RMK A01 T01240120  RH  098%=      5-min Rain = 0.01
KHO1 230659Z 02010KT 12/12 A3007 RMK A01 T01230120  RH  098%=      5-min Rain = 0
KHO1 230700Z 02011KT 12/12 A3007 RMK A01 T01230120  RH  098%=      5-min Rain = 0
KHO1 230701Z 01012KT 12/12 A3007 RMK A01 T01220119  RH  098%=      5-min Rain = 0
KHO1 230702Z 02011KT 12/12 A3007 RMK A01 T01210119  RH  098%=      5-min Rain = 0
KHO1 230703Z 02014KT 12/12 A3007 RMK A01 T01210117  RH  098%=      5-min Rain = 0.01
KHO1 230704Z 02014KT 12/12 A3006 RMK A01 T01200117  RH  098%=      5-min Rain = 0
KHO1 230705Z 03014KT 12/12 A3006 RMK A01 T01200117  RH  098%=      5-min Rain = 0
KHO1 230706Z 03014KT 12/12 A3006 RMK A01 T01200116  RH  098%=      5-min Rain = 0
KHO1 230707Z 03012KT 12/12 A3006 RMK A01 T01200116  RH  097%=      5-min Rain = 0
KHO1 230708Z 03010KT 12/12 A3006 RMK A01 T01190115  RH  097%=      5-min Rain = 0
KHO1 230709Z 04006KT 12/12 A3007 RMK A01 T01190115  RH  097%=      5-min Rain = 0
KHO1 230710Z 04006KT 12/12 A3007 RMK A01 T01190116  RH  098%=      5-min Rain = 0
KHO1 230711Z 05006KT 12/12 A3007 RMK A01 T01190116  RH  098%=      5-min Rain = 0
KHO1 230712Z 04006KT 12/12 A3007 RMK A01 T01190115  RH  098%=      5-min Rain = 0
KHO1 230713Z 03008KT 12/12 A3007 RMK A01 T01190115  RH  097%=      5-min Rain = 0
KHO1 230714Z 04006KT 12/11 A3007 RMK A01 T01180114  RH  097%=      5-min Rain = 0
KHO1 230715Z 03009G14KT 12/11 A3007 RMK A01 T01180113  RH  097%=      5-min Rain = 0
KHO1 230716Z 02011KT 12/11 A3007 RMK A01 T01180112  RH  096%=      5-min Rain = 0
KHO1 230717Z 01011KT 12/11 A3007 RMK A01 T01180112  RH  096%=      5-min Rain = 0
KHO1 230718Z 02011KT 12/11 A3007 RMK A01 T01180112  RH  096%=      5-min Rain = 0
KHO1 230719Z 02012KT 12/11 A3006 RMK A01 T01170111  RH  096%=      5-min Rain = 0
KHO1 230720Z 02012KT 12/11 A3006 RMK A01 T01180111  RH  095%=      5-min Rain = 0
KHO1 230721Z 02011KT 12/11 A3006 RMK A01 T01180111  RH  095%=      5-min Rain = 0
KHO1 230722Z 02011KT 12/11 A3006 RMK A01 T01180112  RH  096%=      5-min Rain = 0
KHO1 230723Z 03011KT 12/11 A3006 RMK A01 T01180112  RH  096%=      5-min Rain = 0
KHO1 230724Z 04009KT 12/11 A3006 RMK A01 T01180111  RH  096%=      5-min Rain = 0
KHO1 230725Z 04009KT 12/11 A3006 RMK A01 T01180112  RH  096%=      5-min Rain = 0
KHO1 230726Z 04008KT 12/11 A3006 RMK A01 T01180112  RH  096%=      5-min Rain = 0
KHO1 230727Z 05007KT 12/11 A3006 RMK A01 T01180112  RH  096%=      5-min Rain = 0
KHO1 230728Z 04008KT 12/11 A3006 RMK A01 T01180112  RH  096%=      5-min Rain = 0
KHO1 230729Z 05009KT 12/11 A3006 RMK A01 T01170112  RH  096%=      5-min Rain = 0
KHO1 230730Z 05008KT 12/11 A3006 RMK A01 T01170111  RH  096%=      5-min Rain = 0
KHO1 230731Z 04008KT 12/11 A3006 RMK A01 T01170111  RH  096%=      5-min Rain = 0
KHO1 230732Z 04007KT 12/11 A3006 RMK A01 T01170111  RH  096%=      5-min Rain = 0
KHO1 230733Z 03008KT 12/11 A3006 RMK A01 T01170110  RH  096%=      5-min Rain = 0
KHO1 230734Z 03010KT 12/11 A3005 RMK A01 T01160110  RH  096%=      5-min Rain = 0
KHO1 230735Z 03008KT 12/11 A3005 RMK A01 T01170110  RH  096%=      5-min Rain = 0
KHO1 230736Z 03010KT 12/11 A3005 RMK A01 T01170110  RH  096%=      5-min Rain = 0
KHO1 230737Z 03010KT 12/11 A3005 RMK A01 T01170110  RH  096%=      5-min Rain = 0
KHO1 230738Z 03010KT 12/11 A3005 RMK A01 T01170110  RH  095%=      5-min Rain = 0
KHO1 230739Z 04008KT 12/11 A3005 RMK A01 T01170109  RH  095%=      5-min Rain = 0
KHO1 230740Z 03008KT 12/11 A3005 RMK A01 T01170110  RH  095%=      5-min Rain = 0
KHO1 230741Z 03009KT 12/11 A3005 RMK A01 T01170109  RH  095%=      5-min Rain = 0
KHO1 230742Z 04008KT 12/11 A3005 RMK A01 T01170109  RH  095%=      5-min Rain = 0
KHO1 230743Z 04008KT 12/11 A3005 RMK A01 T01170109  RH  095%=      5-min Rain = 0
KHO1 230744Z 04007KT 12/11 A3005 RMK A01 T01160109  RH  095%=      5-min Rain = 0
KHO1 230745Z 04007KT 12/11 A3005 RMK A01 T01160109  RH  095%=      5-min Rain = 0
KHO1 230746Z 04006KT 12/11 A3005 RMK A01 T01160109  RH  095%=      5-min Rain = 0
KHO1 230747Z 04008KT 12/11 A3005 RMK A01 T01160109  RH  095%=      5-min Rain = 0
KHO1 230748Z 04009KT 12/11 A3005 RMK A01 T01160109  RH  095%=      5-min Rain = 0
KHO1 230749Z 04008KT 12/11 A3005 RMK A01 T01160109  RH  095%=      5-min Rain = 0
KHO1 230750Z 04008KT 12/11 A3005 RMK A01 T01160109  RH  096%=      5-min Rain = 0
KHO1 230751Z 04008KT 12/11 A3005 RMK A01 T01160109  RH  096%=      5-min Rain = 0
KHO1 230752Z 04008KT 12/11 A3005 RMK A01 T01160110  RH  096%=      5-min Rain = 0
KHO1 230753Z 04009KT 12/11 A3005 RMK A01 T01160109  RH  096%=      5-min Rain = 0
KHO1 230754Z 04009KT 12/11 A3005 RMK A01 T01150109  RH  096%=      5-min Rain = 0
KHO1 230755Z 03010KT 12/11 A3005 RMK A01 T01150109  RH  096%=      5-min Rain = 0
KHO1 230756Z 03009KT 12/11 A3005 RMK A01 T01150109  RH  096%=      5-min Rain = 0
KHO1 230757Z 04011KT 12/11 A3005 RMK A01 T01150109  RH  096%=      5-min Rain = 0
KHO1 230758Z 03007KT 12/11 A3005 RMK A01 T01160109  RH  096%=      5-min Rain = 0
KHO1 230759Z 04007KT 12/11 A3005 RMK A01 T01160109  RH  096%=      5-min Rain = 0
KHO1 230800Z 04008KT 12/11 A3005 RMK A01 T01160109  RH  096%=      5-min Rain = 0
KHO1 230801Z 04010KT 12/11 A3004 RMK A01 T01150110  RH  096%=      5-min Rain = 0
KHO1 230802Z 04008KT 12/11 A3004 RMK A01 T01150110  RH  096%=      5-min Rain = 0
KHO1 230803Z 05007KT 12/11 A3004 RMK A01 T01160110  RH  096%=      5-min Rain = 0
KHO1 230804Z 04007KT 12/11 A3005 RMK A01 T01150109  RH  096%=      5-min Rain = 0
KHO1 230805Z 04005KT 12/11 A3005 RMK A01 T01150109  RH  096%=      5-min Rain = 0
KHO1 230806Z 05005KT 12/11 A3004 RMK A01 T01150109  RH  096%=      5-min Rain = 0
KHO1 230807Z 05005KT 12/11 A3004 RMK A01 T01150109  RH  096%=      5-min Rain = 0
KHO1 230808Z 04006KT 12/11 A3004 RMK A01 T01150109  RH  096%=      5-min Rain = 0
KHO1 230809Z 05007KT 12/11 A3004 RMK A01 T01150109  RH  096%=      5-min Rain = 0
KHO1 230810Z 05007KT 12/11 A3005 RMK A01 T01150108  RH  096%=      5-min Rain = 0
KHO1 230811Z 05007KT 12/11 A3005 RMK A01 T01150108  RH  096%=      5-min Rain = 0
KHO1 230812Z 06006KT 12/11 A3005 RMK A01 T01150108  RH  095%=      5-min Rain = 0
KHO1 230813Z 05006KT 12/11 A3005 RMK A01 T01150108  RH  095%=      5-min Rain = 0
KHO1 230814Z 05005KT 12/11 A3005 RMK A01 T01150108  RH  095%=      5-min Rain = 0
KHO1 230815Z 05005KT 12/11 A3005 RMK A01 T01150108  RH  095%=      5-min Rain = 0
KHO1 230816Z 05006KT 12/11 A3005 RMK A01 T01150108  RH  095%=      5-min Rain = 0
KHO1 230817Z 06005KT 12/11 A3005 RMK A01 T01150108  RH  095%=      5-min Rain = 0
KHO1 230818Z 06004KT 12/11 A3005 RMK A01 T01150108  RH  095%=      5-min Rain = 0
KHO1 230819Z 06004KT 12/11 A3005 RMK A01 T01150108  RH  095%=      5-min Rain = 0
KHO1 230820Z 04004KT 12/11 A3006 RMK A01 T01150108  RH  095%=      5-min Rain = 0
KHO1 230821Z 04005KT 12/11 A3006 RMK A01 T01150108  RH  095%=      5-min Rain = 0
KHO1 230822Z 03004KT 12/11 A3006 RMK A01 T01150108  RH  095%=      5-min Rain = 0
KHO1 230823Z 03005KT 12/11 A3006 RMK A01 T01150108  RH  095%=      5-min Rain = 0
KHO1 230824Z 03005KT 12/11 A3006 RMK A01 T01150109  RH  096%=      5-min Rain = 0
KHO1 230825Z 03006KT 12/11 A3006 RMK A01 T01150109  RH  096%=      5-min Rain = 0
KHO1 230826Z 03006KT 12/11 A3006 RMK A01 T01150109  RH  096%=      5-min Rain = 0
KHO1 230827Z 04006KT 12/11 A3006 RMK A01 T01160110  RH  096%=      5-min Rain = 0
KHO1 230828Z 02005KT 12/11 A3006 RMK A01 T01160110  RH  096%=      5-min Rain = 0
KHO1 230829Z 03006KT 12/11 A3006 RMK A01 T01160110  RH  096%=      5-min Rain = 0
KHO1 230830Z 04007KT 12/11 A3006 RMK A01 T01160110  RH  096%=      5-min Rain = 0
KHO1 230831Z 04006KT 12/11 A3006 RMK A01 T01160110  RH  096%=      5-min Rain = 0
KHO1 230832Z 04005KT 12/11 A3005 RMK A01 T01170110  RH  096%=      5-min Rain = 0
KHO1 230833Z 03005KT 12/11 A3005 RMK A01 T01170110  RH  096%=      5-min Rain = 0
KHO1 230834Z 03005KT 12/11 A3005 RMK A01 T01160110  RH  096%=      5-min Rain = 0
KHO1 230835Z 03006KT 12/11 A3005 RMK A01 T01160110  RH  096%=      5-min Rain = 0
KHO1 230836Z 03007KT 12/11 A3005 RMK A01 T01160110  RH  096%=      5-min Rain = 0
KHO1 230837Z 03006KT 12/11 A3005 RMK A01 T01160110  RH  096%=      5-min Rain = 0
KHO1 230838Z 03007KT 12/11 A3005 RMK A01 T01160111  RH  096%=      5-min Rain = 0
KHO1 230839Z 03007KT 12/11 A3005 RMK A01 T01160111  RH  097%=      5-min Rain = 0
KHO1 230840Z 03007KT 12/11 A3005 RMK A01 T01160111  RH  097%=      5-min Rain = 0
KHO1 230841Z 02007KT 12/11 A3005 RMK A01 T01160111  RH  097%=      5-min Rain = 0
KHO1 230842Z 01006KT 12/11 A3005 RMK A01 T01160111  RH  097%=      5-min Rain = 0
KHO1 230843Z 01007KT 12/11 A3005 RMK A01 T01160111  RH  097%=      5-min Rain = 0
KHO1 230844Z 01006KT 12/11 A3005 RMK A01 T01160112  RH  097%=      5-min Rain = 0
KHO1 230845Z 01006KT 12/11 A3005 RMK A01 T01160112  RH  097%=      5-min Rain = 0
KHO1 230846Z 01006KT 12/11 A3005 RMK A01 T01160112  RH  097%=      5-min Rain = 0
KHO1 230847Z 01007KT 12/11 A3005 RMK A01 T01160112  RH  097%=      5-min Rain = 0
KHO1 230848Z 02005KT 12/11 A3005 RMK A01 T01160112  RH  097%=      5-min Rain = 0
KHO1 230849Z 02005KT 12/11 A3005 RMK A01 T01160112  RH  097%=      5-min Rain = 0
KHO1 230850Z 03005KT 12/11 A3004 RMK A01 T01160112  RH  097%=      5-min Rain = 0
KHO1 230851Z 02005KT 12/11 A3005 RMK A01 T01160112  RH  097%=      5-min Rain = 0
KHO1 230852Z 02005KT 12/11 A3005 RMK A01 T01160112  RH  097%=      5-min Rain = 0
KHO1 230853Z 01006KT 12/11 A3005 RMK A01 T01160112  RH  097%=      5-min Rain = 0
KHO1 230854Z 02005KT 12/11 A3005 RMK A01 T01160112  RH  097%=      5-min Rain = 0
KHO1 230855Z 02008KT 12/11 A3005 RMK A01 T01160112  RH  097%=      5-min Rain = 0
KHO1 230856Z 02006KT 12/11 A3004 RMK A01 T01160112  RH  097%=      5-min Rain = 0
KHO1 230857Z 03007KT 12/11 A3004 RMK A01 T01160112  RH  097%=      5-min Rain = 0
KHO1 230858Z 02008KT 12/11 A3004 RMK A01 T01160112  RH  097%=      5-min Rain = 0
KHO1 230859Z 02007KT 12/11 A3004 RMK A01 T01160112  RH  097%=      5-min Rain = 0
KHO1 230900Z 01006KT 12/11 A3005 RMK A01 T01160112  RH  097%=      5-min Rain = 0
KHO1 230901Z 02006KT 12/11 A3005 RMK A01 T01160113  RH  097%=      5-min Rain = 0
KHO1 230902Z 02007KT 12/11 A3005 RMK A01 T01170113  RH  097%=      5-min Rain = 0
KHO1 230903Z 03006KT 12/11 A3005 RMK A01 T01170113  RH  097%=      5-min Rain = 0
KHO1 230904Z 03007KT 12/11 A3005 RMK A01 T01170112  RH  097%=      5-min Rain = 0
KHO1 230905Z 02006KT 12/11 A3005 RMK A01 T01170113  RH  097%=      5-min Rain = 0
KHO1 230906Z 01006KT 12/11 A3005 RMK A01 T01170113  RH  097%=      5-min Rain = 0
KHO1 230907Z 00007KT 12/11 A3005 RMK A01 T01170113  RH  097%=      5-min Rain = 0
KHO1 230908Z 01006KT 12/11 A3005 RMK A01 T01170113  RH  097%=      5-min Rain = 0
KHO1 230909Z 01006KT 12/11 A3005 RMK A01 T01170113  RH  097%=      5-min Rain = 0
KHO1 230910Z 00006KT 12/11 A3005 RMK A01 T01170113  RH  097%=      5-min Rain = 0
KHO1 230911Z 00006KT 12/11 A3005 RMK A01 T01170113  RH  097%=      5-min Rain = 0
KHO1 230912Z 00005KT 12/11 A3005 RMK A01 T01170113  RH  097%=      5-min Rain = 0
KHO1 230913Z 36005KT 12/11 A3005 RMK A01 T01170113  RH  097%=      5-min Rain = 0
KHO1 230914Z 36006KT 12/11 A3005 RMK A01 T01170113  RH  097%=      5-min Rain = 0
KHO1 230915Z 00007KT 12/11 A3005 RMK A01 T01170113  RH  097%=      5-min Rain = 0
KHO1 230916Z 35006KT 12/11 A3005 RMK A01 T01170114  RH  098%=      5-min Rain = 0
KHO1 230917Z 35007KT 12/11 A3005 RMK A01 T01170114  RH  098%=      5-min Rain = 0
KHO1 230918Z 34006KT 12/11 A3005 RMK A01 T01170114  RH  098%=      5-min Rain = 0
KHO1 230919Z 34006KT 12/11 A3006 RMK A01 T01170113  RH  098%=      5-min Rain = 0
KHO1 230920Z 34007KT 12/11 A3006 RMK A01 T01170113  RH  098%=      5-min Rain = 0
KHO1 230921Z 34007KT 12/11 A3006 RMK A01 T01160113  RH  098%=      5-min Rain = 0
KHO1 230922Z 34007KT 12/11 A3006 RMK A01 T01160112  RH  098%=      5-min Rain = 0
KHO1 230923Z 35007KT 12/11 A3006 RMK A01 T01160112  RH  098%=      5-min Rain = 0
KHO1 230924Z 35007KT 12/11 A3006 RMK A01 T01150112  RH  098%=      5-min Rain = 0
KHO1 230925Z 35006KT 12/11 A3006 RMK A01 T01160113  RH  098%=      5-min Rain = 0
KHO1 230926Z 36005KT 12/11 A3006 RMK A01 T01160113  RH  098%=      5-min Rain = 0
KHO1 230927Z 36005KT 12/11 A3006 RMK A01 T01160113  RH  098%=      5-min Rain = 0
KHO1 230928Z 36005KT 12/11 A3006 RMK A01 T01160114  RH  098%=      5-min Rain = 0
KHO1 230929Z 36005KT 12/11 A3005 RMK A01 T01160114  RH  099%=      5-min Rain = 0
KHO1 230930Z 00005KT 12/11 A3005 RMK A01 T01160114  RH  099%=      5-min Rain = 0
KHO1 230931Z 01005KT 12/11 A3005 RMK A01 T01160114  RH  099%=      5-min Rain = 0
KHO1 230932Z 01006KT 12/11 A3005 RMK A01 T01160114  RH  099%=      5-min Rain = 0
KHO1 230933Z 00006KT 12/11 A3005 RMK A01 T01160114  RH  099%=      5-min Rain = 0
KHO1 230934Z 35006KT 12/11 A3005 RMK A01 T01160114  RH  099%=      5-min Rain = 0
KHO1 230935Z 35008KT 12/12 A3005 RMK A01 T01160115  RH  099%=      5-min Rain = 0
KHO1 230936Z 35008KT 12/12 A3006 RMK A01 T01160115  RH  099%=      5-min Rain = 0
KHO1 230937Z 35009KT 12/12 A3006 RMK A01 T01160115  RH  099%=      5-min Rain = 0
KHO1 230938Z 35009KT 12/12 A3005 RMK A01 T01160115  RH  099%=      5-min Rain = 0
KHO1 230939Z 35009KT 12/12 A3005 RMK A01 T01160115  RH  099%=      5-min Rain = 0
KHO1 230940Z 35007KT 12/12 A3005 RMK A01 T01170115  RH  099%=      5-min Rain = 0
KHO1 230941Z 35008KT 12/12 A3005 RMK A01 T01170115  RH  099%=      5-min Rain = 0
KHO1 230942Z 36008KT 12/12 A3005 RMK A01 T01170115  RH  099%=      5-min Rain = 0
KHO1 230943Z 35008KT 12/12 A3005 RMK A01 T01170116  RH  099%=      5-min Rain = 0
KHO1 230944Z 36008KT 12/12 A3005 RMK A01 T01170115  RH  099%=      5-min Rain = 0
KHO1 230945Z 35008KT 12/12 A3006 RMK A01 T01170116  RH  099%=      5-min Rain = 0
KHO1 230946Z 35009KT 12/12 A3006 RMK A01 T01180116  RH  099%=      5-min Rain = 0
KHO1 230947Z 35008KT 12/12 A3006 RMK A01 T01180116  RH  099%=      5-min Rain = 0
KHO1 230948Z 34008KT 12/12 A3006 RMK A01 T01180116  RH  099%=      5-min Rain = 0
KHO1 230949Z 35008KT 12/12 A3006 RMK A01 T01190117  RH  099%=      5-min Rain = 0
KHO1 230950Z 34007KT 12/12 A3006 RMK A01 T01190117  RH  099%=      5-min Rain = 0
KHO1 230951Z 34008KT 12/12 A3006 RMK A01 T01200118  RH  099%=      5-min Rain = 0
KHO1 230952Z 34008KT 12/12 A3006 RMK A01 T01200118  RH  099%=      5-min Rain = 0
KHO1 230953Z 34008KT 12/12 A3006 RMK A01 T01200118  RH  098%=      5-min Rain = 0
KHO1 230954Z 34008KT 12/12 A3006 RMK A01 T01200118  RH  098%=      5-min Rain = 0
KHO1 230955Z 34008KT 12/12 A3006 RMK A01 T01200118  RH  098%=      5-min Rain = 0
KHO1 230956Z 33008KT 12/12 A3007 RMK A01 T01200118  RH  098%=      5-min Rain = 0
KHO1 230957Z 33008KT 12/12 A3007 RMK A01 T01210117  RH  098%=      5-min Rain = 0
KHO1 230958Z 33008KT 12/12 A3007 RMK A01 T01210118  RH  098%=      5-min Rain = 0
KHO1 230959Z 32008KT 12/12 A3007 RMK A01 T01210118  RH  098%=      5-min Rain = 0
KHO1 231000Z 32008KT 12/12 A3007 RMK A01 T01210118  RH  098%=      5-min Rain = 0
KHO1 231001Z 32008KT 12/12 A3007 RMK A01 T01210118  RH  098%=      5-min Rain = 0
KHO1 231002Z 33007KT 12/12 A3007 RMK A01 T01220118  RH  097%=      5-min Rain = 0.01
KHO1 231003Z 35008KT 12/12 A3007 RMK A01 T01220118  RH  098%=      5-min Rain = 0.01
KHO1 231004Z 35008KT 12/12 A3006 RMK A01 T01210118  RH  098%=      5-min Rain = 0.02
KHO1 231005Z 01010KT 12/12 A3006 RMK A01 T01210118  RH  098%=      5-min Rain = 0.02
KHO1 231006Z 02011KT 12/12 A3005 RMK A01 T01200117  RH  098%=      5-min Rain = 0.04
KHO1 231007Z 02012KT 12/12 A3005 RMK A01 T01200117  RH  098%=      5-min Rain = 0.04
KHO1 231008Z 02012KT 12/12 A3005 RMK A01 T01190117  RH  098%=      5-min Rain = 0.03
KHO1 231009Z 02012G17KT 12/12 A3005 RMK A01 T01190117  RH  099%=      5-min Rain = 0
KHO1 231010Z 02014KT 12/12 A3005 RMK A01 T01190117  RH  099%=      5-min Rain = 0.01
KHO1 231011Z 02012KT 12/12 A3005 RMK A01 T01190117  RH  099%=      5-min Rain = 0
KHO1 231012Z 02011KT 12/12 A3005 RMK A01 T01190118  RH  099%=      5-min Rain = 0
KHO1 231013Z 03010KT 12/12 A3005 RMK A01 T01190118  RH  099%=      5-min Rain = 0
KHO1 231014Z 02010KT 12/12 A3005 RMK A01 T01190118  RH  099%=      5-min Rain = 0
KHO1 231015Z 02009KT 12/12 A3005 RMK A01 T01190118  RH  099%=      5-min Rain = 0
KHO1 231016Z 03010KT 12/12 A3005 RMK A01 T01190118  RH  099%=      5-min Rain = 0
KHO1 231017Z 02010KT 12/12 A3006 RMK A01 T01190119  RH  099%=      5-min Rain = 0
KHO1 231018Z 02008KT 12/12 A3006 RMK A01 T01200119  RH  099%=      5-min Rain = 0
KHO1 231019Z 02009KT 12/12 A3006 RMK A01 T01200119  RH  100%=      5-min Rain = 0
KHO1 231020Z 03010KT 12/12 A3006 RMK A01 T01200119  RH  100%=      5-min Rain = 0
KHO1 231021Z 02011KT 12/12 A3006 RMK A01 T01200119  RH  100%=      5-min Rain = 0
KHO1 231022Z 02009KT 12/12 A3006 RMK A01 T01200120  RH  100%=      5-min Rain = 0
KHO1 231023Z 02009KT 12/12 A3006 RMK A01 T01210120  RH  100%=      5-min Rain = 0
KHO1 231024Z 02009KT 12/12 A3006 RMK A01 T01210120  RH  100%=      5-min Rain = 0
KHO1 231025Z 02011KT 12/12 A3006 RMK A01 T01210120  RH  100%=      5-min Rain = 0
KHO1 231026Z 02012KT 12/12 A3006 RMK A01 T01210120  RH  099%=      5-min Rain = 0
KHO1 231027Z 02012KT 12/12 A3006 RMK A01 T01210120  RH  099%=      5-min Rain = 0
KHO1 231028Z 02012KT 12/12 A3006 RMK A01 T01210120  RH  099%=      5-min Rain = 0
KHO1 231029Z 02010KT 12/12 A3006 RMK A01 T01210120  RH  099%=      5-min Rain = 0
KHO1 231030Z 02009KT 12/12 A3006 RMK A01 T01210120  RH  099%=      5-min Rain = 0
KHO1 231031Z 02008KT 12/12 A3006 RMK A01 T01210120  RH  099%=      5-min Rain = 0
KHO1 231032Z 02009KT 12/12 A3006 RMK A01 T01220120  RH  099%=      5-min Rain = 0
KHO1 231033Z 02012KT 12/12 A3006 RMK A01 T01220120  RH  099%=      5-min Rain = 0
KHO1 231034Z 02012KT 12/12 A3006 RMK A01 T01210120  RH  099%=      5-min Rain = 0
KHO1 231035Z 02013KT 12/12 A3006 RMK A01 T01210119  RH  099%=      5-min Rain = 0
KHO1 231036Z 02012KT 12/12 A3006 RMK A01 T01220119  RH  099%=      5-min Rain = 0
KHO1 231037Z 03014KT 12/12 A3006 RMK A01 T01220119  RH  098%=      5-min Rain = 0
KHO1 231038Z 02012KT 12/12 A3006 RMK A01 T01220119  RH  098%=      5-min Rain = 0
KHO1 231039Z 02013KT 12/12 A3006 RMK A01 T01220119  RH  098%=      5-min Rain = 0
KHO1 231040Z 02012KT 12/12 A3006 RMK A01 T01220119  RH  098%=      5-min Rain = 0
KHO1 231041Z 02014KT 12/12 A3006 RMK A01 T01220119  RH  098%=      5-min Rain = 0
KHO1 231042Z 02014KT 12/12 A3006 RMK A01 T01210118  RH  098%=      5-min Rain = 0
KHO1 231043Z 02012KT 12/12 A3006 RMK A01 T01210118  RH  098%=      5-min Rain = 0
KHO1 231044Z 03012KT 12/12 A3005 RMK A01 T01220118  RH  098%=      5-min Rain = 0
KHO1 231045Z 03011KT 12/12 A3005 RMK A01 T01220118  RH  098%=      5-min Rain = 0
KHO1 231046Z 03013KT 12/12 A3005 RMK A01 T01210118  RH  098%=      5-min Rain = 0
KHO1 231047Z 03013KT 12/12 A3005 RMK A01 T01210117  RH  098%=      5-min Rain = 0
KHO1 231048Z 03013KT 12/12 A3005 RMK A01 T01210117  RH  098%=      5-min Rain = 0
KHO1 231049Z 03012KT 12/12 A3005 RMK A01 T01210118  RH  098%=      5-min Rain = 0
KHO1 231050Z 03010KT 12/12 A3005 RMK A01 T01210118  RH  098%=      5-min Rain = 0
KHO1 231051Z 03013KT 12/12 A3005 RMK A01 T01210118  RH  098%=      5-min Rain = 0
KHO1 231052Z 03015KT 12/12 A3004 RMK A01 T01210118  RH  098%=      5-min Rain = 0
KHO1 231053Z 03015KT 12/12 A3004 RMK A01 T01210117  RH  098%=      5-min Rain = 0
KHO1 231054Z 03011KT 12/12 A3004 RMK A01 T01210117  RH  098%=      5-min Rain = 0
KHO1 231055Z 03013G18KT 12/12 A3004 RMK A01 T01200117  RH  098%=      5-min Rain = 0
KHO1 231056Z 03017KT 12/12 A3004 RMK A01 T01200116  RH  098%=      5-min Rain = 0
KHO1 231057Z 04015KT 12/12 A3004 RMK A01 T01200116  RH  097%=      5-min Rain = 0
KHO1 231058Z 03014KT 12/12 A3004 RMK A01 T01190115  RH  097%=      5-min Rain = 0
KHO1 231059Z 04011KT 12/12 A3004 RMK A01 T01190115  RH  097%=      5-min Rain = 0
KHO1 231100Z 04011KT 12/12 A3003 RMK A01 T01190115  RH  097%=      5-min Rain = 0
KHO1 231101Z 04013KT 12/12 A3003 RMK A01 T01190115  RH  098%=      5-min Rain = 0
KHO1 231102Z 04011KT 12/12 A3003 RMK A01 T01180115  RH  098%=      5-min Rain = 0
KHO1 231103Z 04011G16KT 12/12 A3003 RMK A01 T01180115  RH  098%=      5-min Rain = 0
KHO1 231104Z 04015KT 12/11 A3003 RMK A01 T01180114  RH  098%=      5-min Rain = 0
KHO1 231105Z 03015KT 12/11 A3003 RMK A01 T01170114  RH  098%=      5-min Rain = 0
KHO1 231106Z 04015KT 12/11 A3003 RMK A01 T01170114  RH  098%=      5-min Rain = 0
KHO1 231107Z 03014KT 12/11 A3003 RMK A01 T01170114  RH  098%=      5-min Rain = 0
KHO1 231108Z 03014KT 12/11 A3003 RMK A01 T01170114  RH  098%=      5-min Rain = 0
KHO1 231109Z 03012KT 12/11 A3003 RMK A01 T01170114  RH  098%=      5-min Rain = 0
KHO1 231110Z 03012KT 12/11 A3003 RMK A01 T01170114  RH  098%=      5-min Rain = 0
KHO1 231111Z 03014KT 12/11 A3003 RMK A01 T01170114  RH  098%=      5-min Rain = 0
KHO1 231112Z 03013KT 12/11 A3003 RMK A01 T01170114  RH  098%=      5-min Rain = 0
KHO1 231113Z 03013KT 12/12 A3003 RMK A01 T01170115  RH  098%=      5-min Rain = 0
KHO1 231114Z 03011KT 12/12 A3003 RMK A01 T01170115  RH  099%=      5-min Rain = 0
KHO1 231115Z 03013KT 12/12 A3003 RMK A01 T01170115  RH  099%=      5-min Rain = 0
KHO1 231116Z 02013KT 12/12 A3003 RMK A01 T01170115  RH  099%=      5-min Rain = 0
KHO1 231117Z 03012KT 12/12 A3003 RMK A01 T01170115  RH  099%=      5-min Rain = 0
KHO1 231118Z 03013KT 12/12 A3003 RMK A01 T01170115  RH  099%=      5-min Rain = 0
KHO1 231119Z 03012G17KT 12/12 A3003 RMK A01 T01170116  RH  099%=      5-min Rain = 0
KHO1 231120Z 03012KT 12/12 A3003 RMK A01 T01170116  RH  099%=      5-min Rain = 0
KHO1 231121Z 03012KT 12/12 A3003 RMK A01 T01180116  RH  099%=      5-min Rain = 0
KHO1 231122Z 02012KT 12/12 A3003 RMK A01 T01180116  RH  099%=      5-min Rain = 0.01
KHO1 231123Z 02012KT 12/12 A3004 RMK A01 T01170115  RH  099%=      5-min Rain = 0
KHO1 231124Z 02009KT 12/12 A3004 RMK A01 T01170115  RH  099%=      5-min Rain = 0
KHO1 231125Z 03011KT 12/12 A3004 RMK A01 T01170115  RH  099%=      5-min Rain = 0
KHO1 231126Z 03010KT 12/11 A3004 RMK A01 T01160114  RH  099%=      5-min Rain = 0
KHO1 231127Z 04014KT 12/11 A3004 RMK A01 T01160113  RH  098%=      5-min Rain = 0
KHO1 231128Z 03013KT 12/11 A3004 RMK A01 T01150112  RH  098%=      5-min Rain = 0
KHO1 231129Z 03012KT 12/11 A3004 RMK A01 T01150111  RH  098%=      5-min Rain = 0
KHO1 231130Z 04009KT 11/11 A3005 RMK A01 T01140111  RH  098%=      5-min Rain = 0
KHO1 231131Z 03011KT 11/11 A3005 RMK A01 T01140111  RH  098%=      5-min Rain = 0
KHO1 231132Z 04013KT 11/11 A3005 RMK A01 T01140110  RH  098%=      5-min Rain = 0
KHO1 231133Z 04012KT 11/11 A3005 RMK A01 T01130110  RH  098%=      5-min Rain = 0
KHO1 231134Z 04008KT 11/11 A3005 RMK A01 T01130110  RH  098%=      5-min Rain = 0
KHO1 231135Z 04008KT 11/11 A3005 RMK A01 T01130110  RH  098%=      5-min Rain = 0
KHO1 231136Z 04010KT 11/11 A3005 RMK A01 T01130110  RH  098%=      5-min Rain = 0
KHO1 231137Z 03010KT 11/11 A3005 RMK A01 T01130110  RH  098%=      5-min Rain = 0
KHO1 231138Z 04009KT 11/11 A3005 RMK A01 T01130109  RH  098%=      5-min Rain = 0
KHO1 231139Z 03010KT 11/11 A3005 RMK A01 T01120109  RH  098%=      5-min Rain = 0
KHO1 231140Z 04010KT 11/11 A3005 RMK A01 T01120109  RH  098%=      5-min Rain = 0
KHO1 231141Z 03008KT 11/11 A3005 RMK A01 T01120109  RH  098%=      5-min Rain = 0
KHO1 231142Z 04009KT 11/11 A3005 RMK A01 T01120109  RH  098%=      5-min Rain = 0
KHO1 231143Z 04009KT 11/11 A3005 RMK A01 T01120109  RH  098%=      5-min Rain = 0
KHO1 231144Z 04007KT 11/11 A3005 RMK A01 T01120109  RH  098%=      5-min Rain = 0
KHO1 231145Z 04008KT 11/11 A3005 RMK A01 T01120109  RH  098%=      5-min Rain = 0
KHO1 231146Z 04009KT 11/11 A3005 RMK A01 T01120109  RH  099%=      5-min Rain = 0
KHO1 231147Z 04011KT 11/11 A3005 RMK A01 T01120109  RH  099%=      5-min Rain = 0
KHO1 231148Z 04009KT 11/11 A3005 RMK A01 T01120109  RH  098%=      5-min Rain = 0
KHO1 231149Z 03010KT 11/11 A3005 RMK A01 T01110109  RH  098%=      5-min Rain = 0
KHO1 231150Z 03011KT 11/11 A3005 RMK A01 T01110109  RH  098%=      5-min Rain = 0
KHO1 231151Z 03011KT 11/11 A3005 RMK A01 T01110109  RH  099%=      5-min Rain = 0
KHO1 231152Z 03011KT 11/11 A3005 RMK A01 T01110109  RH  099%=      5-min Rain = 0
KHO1 231153Z 02009KT 11/11 A3005 RMK A01 T01110109  RH  099%=      5-min Rain = 0
KHO1 231154Z 02009KT 11/11 A3005 RMK A01 T01110109  RH  099%=      5-min Rain = 0
KHO1 231155Z 02009KT 11/11 A3005 RMK A01 T01110109  RH  099%=      5-min Rain = 0
KHO1 231156Z 02009KT 11/11 A3006 RMK A01 T01110110  RH  099%=      5-min Rain = 0
KHO1 231157Z 02010KT 11/11 A3006 RMK A01 T01110110  RH  099%=      5-min Rain = 0
KHO1 231158Z 02009KT 11/11 A3006 RMK A01 T01110110  RH  099%=      5-min Rain = 0
KHO1 231159Z 02009KT 11/11 A3006 RMK A01 T01110110  RH  099%=      5-min Rain = 0
KHO1 231200Z 02009KT 11/11 A3006 RMK A01 T01110110  RH  099%=      5-min Rain = 0
KHO1 231201Z 02008KT 11/11 A3006 RMK A01 T01110109  RH  099%=      5-min Rain = 0
KHO1 231202Z 02008KT 11/11 A3006 RMK A01 T01110110  RH  099%=      5-min Rain = 0
KHO1 231203Z 01008KT 11/11 A3006 RMK A01 T01120110  RH  099%=      5-min Rain = 0
KHO1 231204Z 00009KT 11/11 A3006 RMK A01 T01120110  RH  099%=      5-min Rain = 0
KHO1 231205Z 01011KT 11/11 A3006 RMK A01 T01120110  RH  099%=      5-min Rain = 0
KHO1 231206Z 01010KT 11/11 A3006 RMK A01 T01110110  RH  099%=      5-min Rain = 0
KHO1 231207Z 01010KT 11/11 A3006 RMK A01 T01110110  RH  099%=      5-min Rain = 0
KHO1 231208Z 01010KT 11/11 A3006 RMK A01 T01120110  RH  099%=      5-min Rain = 0
KHO1 231209Z 01011KT 11/11 A3006 RMK A01 T01120110  RH  099%=      5-min Rain = 0
KHO1 231210Z 01011KT 11/11 A3006 RMK A01 T01120110  RH  099%=      5-min Rain = 0
KHO1 231211Z 02010KT 11/11 A3006 RMK A01 T01120110  RH  099%=      5-min Rain = 0
KHO1 231212Z 02011KT 11/11 A3006 RMK A01 T01120110  RH  099%=      5-min Rain = 0
KHO1 231213Z 02010KT 11/11 A3006 RMK A01 T01120110  RH  099%=      5-min Rain = 0
KHO1 231214Z 02008KT 11/11 A3006 RMK A01 T01120110  RH  099%=      5-min Rain = 0
KHO1 231215Z 02011KT 11/11 A3006 RMK A01 T01120111  RH  099%=      5-min Rain = 0
KHO1 231216Z 02011KT 11/11 A3007 RMK A01 T01120110  RH  099%=      5-min Rain = 0
KHO1 231217Z 02012KT 11/11 A3007 RMK A01 T01120110  RH  099%=      5-min Rain = 0
KHO1 231218Z 02009KT 11/11 A3007 RMK A01 T01120110  RH  099%=      5-min Rain = 0
KHO1 231219Z 01008KT 11/11 A3007 RMK A01 T01120110  RH  099%=      5-min Rain = 0
KHO1 231220Z 02008KT 11/11 A3007 RMK A01 T01120110  RH  099%=      5-min Rain = 0
KHO1 231221Z 02011KT 11/11 A3007 RMK A01 T01120110  RH  099%=      5-min Rain = 0
KHO1 231222Z 02010KT 11/11 A3007 RMK A01 T01120110  RH  098%=      5-min Rain = 0
KHO1 231223Z 01011KT 11/11 A3007 RMK A01 T01120109  RH  098%=      5-min Rain = 0
KHO1 231224Z 02011KT 11/11 A3007 RMK A01 T01120110  RH  098%=      5-min Rain = 0
KHO1 231225Z 01010KT 11/11 A3007 RMK A01 T01120110  RH  098%=      5-min Rain = 0
KHO1 231226Z 01010KT 11/11 A3007 RMK A01 T01120110  RH  098%=      5-min Rain = 0
KHO1 231227Z 02013KT 11/11 A3007 RMK A01 T01120109  RH  098%=      5-min Rain = 0
KHO1 231228Z 02012KT 11/11 A3007 RMK A01 T01120109  RH  098%=      5-min Rain = 0
KHO1 231229Z 02009KT 11/11 A3007 RMK A01 T01120109  RH  098%=      5-min Rain = 0
KHO1 231230Z 02012KT 11/11 A3007 RMK A01 T01120109  RH  098%=      5-min Rain = 0
KHO1 231231Z 02011KT 11/11 A3007 RMK A01 T01120109  RH  098%=      5-min Rain = 0
KHO1 231232Z 02012KT 11/11 A3007 RMK A01 T01120109  RH  098%=      5-min Rain = 0
KHO1 231233Z 02010KT 11/11 A3007 RMK A01 T01120109  RH  098%=      5-min Rain = 0
KHO1 231234Z 02012KT 11/11 A3007 RMK A01 T01120109  RH  098%=      5-min Rain = 0
KHO1 231235Z 01013KT 11/11 A3007 RMK A01 T01110109  RH  098%=      5-min Rain = 0
KHO1 231236Z 01011KT 11/11 A3007 RMK A01 T01110109  RH  098%=      5-min Rain = 0
KHO1 231237Z 02012KT 11/11 A3007 RMK A01 T01110109  RH  098%=      5-min Rain = 0
KHO1 231238Z 02013KT 11/11 A3007 RMK A01 T01110108  RH  098%=      5-min Rain = 0
KHO1 231239Z 02012KT 11/11 A3007 RMK A01 T01110108  RH  098%=      5-min Rain = 0
KHO1 231240Z 02012KT 11/11 A3007 RMK A01 T01110108  RH  098%=      5-min Rain = 0
KHO1 231241Z 01012KT 11/11 A3007 RMK A01 T01110108  RH  098%=      5-min Rain = 0
KHO1 231242Z 02012KT 11/11 A3007 RMK A01 T01110109  RH  098%=      5-min Rain = 0
KHO1 231243Z 02011KT 11/11 A3007 RMK A01 T01120109  RH  098%=      5-min Rain = 0
KHO1 231244Z 02014KT 11/11 A3007 RMK A01 T01110109  RH  098%=      5-min Rain = 0
KHO1 231245Z 03012KT 11/11 A3007 RMK A01 T01110108  RH  098%=      5-min Rain = 0
KHO1 231246Z 03011KT 11/11 A3007 RMK A01 T01110108  RH  098%=      5-min Rain = 0
KHO1 231247Z 02013KT 11/11 A3007 RMK A01 T01120109  RH  098%=      5-min Rain = 0
KHO1 231248Z 03014KT 11/11 A3007 RMK A01 T01120108  RH  098%=      5-min Rain = 0
KHO1 231249Z 03016KT 11/11 A3007 RMK A01 T01120108  RH  098%=      5-min Rain = 0
KHO1 231250Z 03013KT 11/11 A3007 RMK A01 T01110108  RH  098%=      5-min Rain = 0
KHO1 231251Z 03011KT 11/11 A3007 RMK A01 T01120109  RH  098%=      5-min Rain = 0
KHO1 231252Z 02012KT 11/11 A3008 RMK A01 T01120109  RH  098%=      5-min Rain = 0
KHO1 231253Z 02013KT 11/11 A3008 RMK A01 T01120109  RH  098%=      5-min Rain = 0
KHO1 231254Z 02012KT 11/11 A3008 RMK A01 T01120109  RH  098%=      5-min Rain = 0
KHO1 231255Z 03013KT 11/11 A3008 RMK A01 T01120109  RH  098%=      5-min Rain = 0
KHO1 231256Z 02013KT 11/11 A3008 RMK A01 T01120109  RH  098%=      5-min Rain = 0
KHO1 231257Z 02013KT 11/11 A3008 RMK A01 T01120109  RH  098%=      5-min Rain = 0
KHO1 231258Z 02012KT 11/11 A3008 RMK A01 T01120109  RH  098%=      5-min Rain = 0
KHO1 231259Z 03012KT 11/11 A3008 RMK A01 T01130109  RH  098%=      5-min Rain = 0
KHO1 231300Z 03012KT 11/11 A3008 RMK A01 T01120109  RH  098%=      5-min Rain = 0
KHO1 231301Z 02011KT 11/11 A3008 RMK A01 T01130110  RH  098%=      5-min Rain = 0
KHO1 231302Z 02009KT 11/11 A3008 RMK A01 T01130110  RH  098%=      5-min Rain = 0
KHO1 231303Z 02012KT 11/11 A3008 RMK A01 T01130110  RH  098%=      5-min Rain = 0
KHO1 231304Z 02011KT 11/11 A3008 RMK A01 T01130109  RH  098%=      5-min Rain = 0
KHO1 231305Z 02010KT 11/11 A3008 RMK A01 T01130110  RH  098%=      5-min Rain = 0
KHO1 231306Z 02013G18KT 11/11 A3008 RMK A01 T01130110  RH  098%=      5-min Rain = 0
KHO1 231307Z 02013KT 11/11 A3008 RMK A01 T01120109  RH  098%=      5-min Rain = 0
KHO1 231308Z 02010KT 11/11 A3008 RMK A01 T01120109  RH  098%=      5-min Rain = 0
KHO1 231309Z 02014KT 11/11 A3008 RMK A01 T01130109  RH  098%=      5-min Rain = 0
KHO1 231310Z 02013KT 11/11 A3008 RMK A01 T01120109  RH  098%=      5-min Rain = 0
KHO1 231311Z 02014KT 11/11 A3008 RMK A01 T01120109  RH  098%=      5-min Rain = 0
KHO1 231312Z 02018KT 11/11 A3008 RMK A01 T01120108  RH  097%=      5-min Rain = 0
KHO1 231313Z 03016KT 11/11 A3008 RMK A01 T01120107  RH  097%=      5-min Rain = 0
KHO1 231314Z 03015KT 11/11 A3008 RMK A01 T01120107  RH  097%=      5-min Rain = 0
KHO1 231315Z 03015KT 11/11 A3008 RMK A01 T01130108  RH  097%=      5-min Rain = 0
KHO1 231316Z 03014KT 11/11 A3008 RMK A01 T01130108  RH  097%=      5-min Rain = 0
KHO1 231317Z 03013KT 11/11 A3008 RMK A01 T01130109  RH  097%=      5-min Rain = 0
KHO1 231318Z 03015KT 11/11 A3008 RMK A01 T01130109  RH  097%=      5-min Rain = 0
KHO1 231319Z 03015KT 11/11 A3008 RMK A01 T01130109  RH  097%=      5-min Rain = 0
KHO1 231320Z 03014KT 11/11 A3008 RMK A01 T01130109  RH  097%=      5-min Rain = 0
KHO1 231321Z 03014KT 11/11 A3008 RMK A01 T01130109  RH  097%=      5-min Rain = 0
KHO1 231322Z 03013KT 11/11 A3008 RMK A01 T01130109  RH  097%=      5-min Rain = 0
KHO1 231323Z 03014KT 11/11 A3008 RMK A01 T01130109  RH  097%=      5-min Rain = 0
KHO1 231324Z 02013KT 11/11 A3008 RMK A01 T01130109  RH  097%=      5-min Rain = 0
KHO1 231325Z 03013G18KT 11/11 A3008 RMK A01 T01130109  RH  097%=      5-min Rain = 0
KHO1 231326Z 03014KT 11/11 A3008 RMK A01 T01130108  RH  097%=      5-min Rain = 0
KHO1 231327Z 03013KT 11/11 A3009 RMK A01 T01130108  RH  097%=      5-min Rain = 0
KHO1 231328Z 03014KT 11/11 A3009 RMK A01 T01130108  RH  097%=      5-min Rain = 0
KHO1 231329Z 03012KT 11/11 A3009 RMK A01 T01130109  RH  097%=      5-min Rain = 0
KHO1 231330Z 03010KT 11/11 A3009 RMK A01 T01130109  RH  097%=      5-min Rain = 0
KHO1 231331Z 03010KT 11/11 A3009 RMK A01 T01130110  RH  097%=      5-min Rain = 0
KHO1 231332Z 03009KT 11/11 A3009 RMK A01 T01130110  RH  098%=      5-min Rain = 0
KHO1 231333Z 03010KT 11/11 A3009 RMK A01 T01140110  RH  098%=      5-min Rain = 0
KHO1 231334Z 04009KT 11/11 A3009 RMK A01 T01140111  RH  098%=      5-min Rain = 0
KHO1 231335Z 03011KT 11/11 A3009 RMK A01 T01140110  RH  098%=      5-min Rain = 0
KHO1 231336Z 03011G16KT 11/11 A3009 RMK A01 T01140110  RH  098%=      5-min Rain = 0
KHO1 231337Z 04014KT 11/11 A3009 RMK A01 T01130109  RH  097%=      5-min Rain = 0
KHO1 231338Z 03012KT 11/11 A3009 RMK A01 T01130109  RH  097%=      5-min Rain = 0
KHO1 231339Z 03013KT 11/11 A3009 RMK A01 T01130108  RH  097%=      5-min Rain = 0
KHO1 231340Z 03014KT 11/11 A3009 RMK A01 T01130108  RH  097%=      5-min Rain = 0
KHO1 231341Z 03014KT 11/11 A3009 RMK A01 T01130108  RH  097%=      5-min Rain = 0
KHO1 231342Z 03011KT 11/11 A3009 RMK A01 T01130108  RH  097%=      5-min Rain = 0
KHO1 231343Z 03013KT 11/11 A3009 RMK A01 T01130109  RH  097%=      5-min Rain = 0
KHO1 231344Z 04012KT 11/11 A3009 RMK A01 T01130109  RH  097%=      5-min Rain = 0
KHO1 231345Z 04012KT 11/11 A3009 RMK A01 T01140109  RH  097%=      5-min Rain = 0
KHO1 231346Z 04011G16KT 11/11 A3009 RMK A01 T01140109  RH  097%=      5-min Rain = 0
KHO1 231347Z 04009KT 11/11 A3008 RMK A01 T01140110  RH  097%=      5-min Rain = 0
KHO1 231348Z 04010KT 11/11 A3008 RMK A01 T01140110  RH  097%=      5-min Rain = 0
KHO1 231349Z 04009KT 11/11 A3008 RMK A01 T01140110  RH  097%=      5-min Rain = 0
KHO1 231350Z 04009G14KT 12/11 A3008 RMK A01 T01150110  RH  097%=      5-min Rain = 0
KHO1 231351Z 04013KT 12/11 A3008 RMK A01 T01150109  RH  097%=      5-min Rain = 0
KHO1 231352Z 03012KT 12/11 A3009 RMK A01 T01150109  RH  096%=      5-min Rain = 0
KHO1 231353Z 03015KT 12/11 A3008 RMK A01 T01150110  RH  096%=      5-min Rain = 0
KHO1 231354Z 04013KT 12/11 A3009 RMK A01 T01160110  RH  096%=      5-min Rain = 0
KHO1 231355Z 04013KT 12/11 A3009 RMK A01 T01170111  RH  096%=      5-min Rain = 0
KHO1 231356Z 03010KT 12/11 A3009 RMK A01 T01180111  RH  096%=      5-min Rain = 0
KHO1 231357Z 03011KT 12/11 A3009 RMK A01 T01180112  RH  096%=      5-min Rain = 0
KHO1 231358Z 04012G17KT 12/11 A3009 RMK A01 T01180112  RH  096%=      5-min Rain = 0
KHO1 231359Z 03012KT 12/11 A3009 RMK A01 T01190112  RH  096%=      5-min Rain = 0
KHO1 231400Z 04010KT 12/11 A3009 RMK A01 T01190112  RH  095%=      5-min Rain = 0
KHO1 231401Z 04013G18KT 12/11 A3009 RMK A01 T01200113  RH  095%=      5-min Rain = 0
KHO1 231402Z 03012KT 12/11 A3009 RMK A01 T01190110  RH  094%=      5-min Rain = 0
KHO1 231403Z 03013KT 12/11 A3009 RMK A01 T01200111  RH  094%=      5-min Rain = 0
KHO1 231404Z 03013KT 12/11 A3009 RMK A01 T01200110  RH  094%=      5-min Rain = 0
KHO1 231405Z 03013KT 12/11 A3009 RMK A01 T01200111  RH  094%=      5-min Rain = 0
KHO1 231406Z 03015KT 12/11 A3009 RMK A01 T01190110  RH  094%=      5-min Rain = 0
KHO1 231407Z 03015KT 12/11 A3009 RMK A01 T01190109  RH  094%=      5-min Rain = 0
KHO1 231408Z 04012KT 12/11 A3009 RMK A01 T01190110  RH  094%=      5-min Rain = 0
KHO1 231409Z 04012KT 12/11 A3009 RMK A01 T01200111  RH  095%=      5-min Rain = 0
KHO1 231410Z 04008KT 12/11 A3009 RMK A01 T01200112  RH  095%=      5-min Rain = 0
KHO1 231411Z 04008KT 12/11 A3009 RMK A01 T01200112  RH  094%=      5-min Rain = 0
KHO1 231412Z 04012KT 12/11 A3009 RMK A01 T01200111  RH  094%=      5-min Rain = 0
KHO1 231413Z 03011KT 12/11 A3009 RMK A01 T01200111  RH  094%=      5-min Rain = 0
KHO1 231414Z 03012KT 12/11 A3009 RMK A01 T01200111  RH  094%=      5-min Rain = 0
KHO1 231415Z 03012KT 12/11 A3009 RMK A01 T01200110  RH  094%=      5-min Rain = 0
KHO1 231416Z 03011KT 12/11 A3009 RMK A01 T01200111  RH  094%=      5-min Rain = 0
KHO1 231417Z 04011KT 12/11 A3009 RMK A01 T01200111  RH  094%=      5-min Rain = 0
KHO1 231418Z 03012KT 12/11 A3009 RMK A01 T01200112  RH  094%=      5-min Rain = 0
KHO1 231419Z 03012KT 12/11 A3009 RMK A01 T01200111  RH  094%=      5-min Rain = 0
KHO1 231420Z 02012KT 12/11 A3009 RMK A01 T01200111  RH  094%=      5-min Rain = 0
KHO1 231421Z 02012KT 12/11 A3009 RMK A01 T01200111  RH  094%=      5-min Rain = 0
KHO1 231422Z 03012KT 12/11 A3009 RMK A01 T01200111  RH  094%=      5-min Rain = 0
KHO1 231423Z 04012KT 12/11 A3009 RMK A01 T01200111  RH  094%=      5-min Rain = 0
KHO1 231424Z 04013KT 12/11 A3009 RMK A01 T01200109  RH  093%=      5-min Rain = 0
KHO1 231425Z 04011KT 12/11 A3009 RMK A01 T01200111  RH  094%=      5-min Rain = 0
KHO1 231426Z 03011KT 12/11 A3009 RMK A01 T01210112  RH  094%=      5-min Rain = 0
KHO1 231427Z 03011KT 12/11 A3009 RMK A01 T01220113  RH  095%=      5-min Rain = 0
KHO1 231428Z 03013KT 12/11 A3009 RMK A01 T01210112  RH  094%=      5-min Rain = 0
KHO1 231429Z 03014KT 12/11 A3009 RMK A01 T01210111  RH  094%=      5-min Rain = 0
KHO1 231430Z 04013KT 12/11 A3009 RMK A01 T01210111  RH  093%=      5-min Rain = 0
KHO1 231431Z 04013KT 12/11 A3009 RMK A01 T01210110  RH  093%=      5-min Rain = 0
KHO1 231432Z 04014KT 12/11 A3009 RMK A01 T01210110  RH  093%=      5-min Rain = 0
KHO1 231433Z 04012KT 12/11 A3009 RMK A01 T01210111  RH  093%=      5-min Rain = 0
KHO1 231434Z 03013KT 12/11 A3009 RMK A01 T01220111  RH  093%=      5-min Rain = 0
KHO1 231435Z 04010KT 12/11 A3009 RMK A01 T01220113  RH  094%=      5-min Rain = 0
KHO1 231436Z 04011KT 12/11 A3009 RMK A01 T01230113  RH  094%=      5-min Rain = 0
KHO1 231437Z 04011KT 12/11 A3009 RMK A01 T01230113  RH  093%=      5-min Rain = 0
KHO1 231438Z 03012KT 12/11 A3009 RMK A01 T01230112  RH  093%=      5-min Rain = 0
KHO1 231439Z 04010KT 12/11 A3009 RMK A01 T01230113  RH  093%=      5-min Rain = 0
KHO1 231440Z 04013KT 12/11 A3009 RMK A01 T01230112  RH  093%=      5-min Rain = 0
KHO1 231441Z 03011KT 12/11 A301 RMK A01 T01240113  RH  093%=      5-min Rain = 0
KHO1 231442Z 03012KT 12/11 A301 RMK A01 T01240114  RH  093%=      5-min Rain = 0
KHO1 231443Z 03012KT 12/11 A301 RMK A01 T01240112  RH  093%=      5-min Rain = 0
KHO1 231444Z 03013KT 12/11 A301 RMK A01 T01240112  RH  092%=      5-min Rain = 0
KHO1 231445Z 03014KT 12/11 A301 RMK A01 T01240112  RH  093%=      5-min Rain = 0
KHO1 231446Z 04015KT 12/11 A301 RMK A01 T01240111  RH  092%=      5-min Rain = 0
KHO1 231447Z 04013KT 12/11 A3009 RMK A01 T01240112  RH  092%=      5-min Rain = 0
KHO1 231448Z 04011KT 12/11 A301 RMK A01 T01240113  RH  093%=      5-min Rain = 0
KHO1 231449Z 05013KT 13/11 A301 RMK A01 T01250114  RH  093%=      5-min Rain = 0
KHO1 231450Z 04011KT 12/11 A3009 RMK A01 T01240112  RH  092%=      5-min Rain = 0
KHO1 231451Z 04012KT 12/11 A301 RMK A01 T01240112  RH  092%=      5-min Rain = 0
KHO1 231452Z 04009KT 12/11 A301 RMK A01 T01240112  RH  092%=      5-min Rain = 0
KHO1 231453Z 04011KT 13/11 A301 RMK A01 T01250113  RH  093%=      5-min Rain = 0
KHO1 231454Z 04010KT 13/11 A301 RMK A01 T01250113  RH  093%=      5-min Rain = 0
KHO1 231455Z 04010KT 13/11 A301 RMK A01 T01250114  RH  093%=      5-min Rain = 0
KHO1 231456Z 04015KT 13/11 A301 RMK A01 T01250112  RH  092%=      5-min Rain = 0
KHO1 231457Z 04013KT 12/11 A3009 RMK A01 T01240110  RH  091%=      5-min Rain = 0
KHO1 231458Z 04012KT 12/11 A3009 RMK A01 T01240112  RH  092%=      5-min Rain = 0
KHO1 231459Z 03015KT 12/11 A3009 RMK A01 T01240111  RH  092%=      5-min Rain = 0
KHO1 231500Z 04015KT 12/11 A3009 RMK A01 T01240111  RH  092%=      5-min Rain = 0
KHO1 231501Z 03014KT 12/11 A3009 RMK A01 T01240111  RH  092%=      5-min Rain = 0
KHO1 231502Z 04012KT 12/11 A3009 RMK A01 T01240111  RH  092%=      5-min Rain = 0
KHO1 231503Z 04011KT 13/11 A3009 RMK A01 T01260114  RH  093%=      5-min Rain = 0
KHO1 231504Z 04013KT 13/11 A301 RMK A01 T01260114  RH  092%=      5-min Rain = 0
KHO1 231505Z 04014KT 13/11 A3009 RMK A01 T01270114  RH  092%=      5-min Rain = 0
KHO1 231506Z 04015KT 13/11 A301 RMK A01 T01270112  RH  091%=      5-min Rain = 0
KHO1 231507Z 04014KT 13/11 A301 RMK A01 T01260111  RH  091%=      5-min Rain = 0
KHO1 231508Z 04014KT 13/11 A301 RMK A01 T01260112  RH  091%=      5-min Rain = 0
KHO1 231509Z 04012KT 13/11 A301 RMK A01 T01260113  RH  092%=      5-min Rain = 0
KHO1 231510Z 03013KT 13/11 A301 RMK A01 T01260112  RH  091%=      5-min Rain = 0
KHO1 231511Z 03014KT 13/11 A301 RMK A01 T01260111  RH  091%=      5-min Rain = 0
KHO1 231512Z 03010KT 13/11 A301 RMK A01 T01260114  RH  092%=      5-min Rain = 0
KHO1 231513Z 05008KT 13/12 A301 RMK A01 T01270115  RH  092%=      5-min Rain = 0
KHO1 231514Z 04008G13KT 13/12 A301 RMK A01 T01280115  RH  092%=      5-min Rain = 0
KHO1 231515Z 03013KT 13/11 A301 RMK A01 T01280113  RH  091%=      5-min Rain = 0
KHO1 231516Z 03015KT 13/11 A301 RMK A01 T01270111  RH  090%=      5-min Rain = 0
KHO1 231517Z 03012KT 13/11 A301 RMK A01 T01260111  RH  091%=      5-min Rain = 0
KHO1 231518Z 03014KT 13/11 A301 RMK A01 T01270112  RH  091%=      5-min Rain = 0
KHO1 231519Z 03015KT 13/11 A301 RMK A01 T01270112  RH  091%=      5-min Rain = 0
KHO1 231520Z 04010KT 13/11 A301 RMK A01 T01270113  RH  091%=      5-min Rain = 0
KHO1 231521Z 05012KT 13/11 A301 RMK A01 T01270111  RH  090%=      5-min Rain = 0
KHO1 231522Z 04011KT 13/11 A301 RMK A01 T01270112  RH  090%=      5-min Rain = 0
KHO1 231523Z 04013KT 13/11 A301 RMK A01 T01270112  RH  090%=      5-min Rain = 0
KHO1 231524Z 05012KT 13/11 A301 RMK A01 T01280112  RH  090%=      5-min Rain = 0
KHO1 231525Z 04011KT 13/11 A301 RMK A01 T01280112  RH  090%=      5-min Rain = 0
KHO1 231526Z 05007KT 13/11 A301 RMK A01 T01280113  RH  091%=      5-min Rain = 0
KHO1 231527Z 04012KT 13/11 A301 RMK A01 T01280113  RH  091%=      5-min Rain = 0
KHO1 231528Z 04013KT 13/11 A301 RMK A01 T01280112  RH  090%=      5-min Rain = 0
KHO1 231529Z 04013KT 13/11 A301 RMK A01 T01270111  RH  090%=      5-min Rain = 0
KHO1 231530Z 04013KT 13/11 A301 RMK A01 T01270111  RH  090%=      5-min Rain = 0
KHO1 231531Z 04012KT 13/11 A301 RMK A01 T01270112  RH  091%=      5-min Rain = 0
KHO1 231532Z 04010KT 13/11 A301 RMK A01 T01280114  RH  091%=      5-min Rain = 0
KHO1 231533Z 04012KT 13/12 A301 RMK A01 T01290115  RH  091%=      5-min Rain = 0
KHO1 231534Z 04009KT 13/12 A301 RMK A01 T01300115  RH  091%=      5-min Rain = 0
KHO1 231535Z 04012KT 13/12 A301 RMK A01 T01300115  RH  090%=      5-min Rain = 0
KHO1 231536Z 03012KT 13/12 A301 RMK A01 T01310115  RH  090%=      5-min Rain = 0
KHO1 231537Z 04012KT 13/12 A301 RMK A01 T01310115  RH  090%=      5-min Rain = 0
KHO1 231538Z 05012KT 13/11 A301 RMK A01 T01310114  RH  089%=      5-min Rain = 0
KHO1 231539Z 04010KT 13/11 A301 RMK A01 T01310114  RH  089%=      5-min Rain = 0
KHO1 231540Z 04011KT 13/12 A301 RMK A01 T01310115  RH  090%=      5-min Rain = 0
KHO1 231541Z 04011KT 13/12 A301 RMK A01 T01310116  RH  090%=      5-min Rain = 0
KHO1 231542Z 04009KT 13/11 A301 RMK A01 T01310114  RH  089%=      5-min Rain = 0
KHO1 231543Z 05010KT 13/11 A301 RMK A01 T01310114  RH  090%=      5-min Rain = 0
KHO1 231544Z 03010KT 13/11 A301 RMK A01 T01310114  RH  089%=      5-min Rain = 0
KHO1 231545Z 04011KT 13/11 A301 RMK A01 T01310113  RH  089%=      5-min Rain = 0
KHO1 231546Z 04009KT 13/12 A3011 RMK A01 T01310115  RH  090%=      5-min Rain = 0
KHO1 231547Z 05009KT 13/11 A3011 RMK A01 T01310113  RH  089%=      5-min Rain = 0
KHO1 231548Z 05009KT 13/11 A3011 RMK A01 T01310111  RH  088%=      5-min Rain = 0
KHO1 231549Z 06007KT 13/11 A3011 RMK A01 T01310111  RH  088%=      5-min Rain = 0
KHO1 231550Z 07007KT 13/11 A3011 RMK A01 T01310111  RH  088%=      5-min Rain = 0
KHO1 231551Z 06007KT 13/11 A3011 RMK A01 T01320113  RH  088%=      5-min Rain = 0
KHO1 231552Z 05011KT 13/11 A3011 RMK A01 T01320113  RH  088%=      5-min Rain = 0
KHO1 231553Z 05010KT 13/11 A3011 RMK A01 T01330112  RH  087%=      5-min Rain = 0
KHO1 231554Z 05008KT 13/11 A3011 RMK A01 T01330110  RH  086%=      5-min Rain = 0
KHO1 231555Z 05010KT 13/11 A3011 RMK A01 T01330111  RH  086%=      5-min Rain = 0
KHO1 231556Z 05010KT 13/11 A3011 RMK A01 T01330109  RH  085%=      5-min Rain = 0
KHO1 231557Z 05010KT 13/11 A3011 RMK A01 T01320107  RH  085%=      5-min Rain = 0
KHO1 231558Z 05008KT 13/11 A3011 RMK A01 T01320110  RH  086%=      5-min Rain = 0
KHO1 231559Z 04009KT 13/11 A3011 RMK A01 T01330112  RH  087%=      5-min Rain = 0
KHO1 231600Z 05007KT 13/11 A3012 RMK A01 T01330113  RH  087%=      5-min Rain = 0
KHO1 231601Z 05006G11KT 13/11 A3012 RMK A01 T01340112  RH  087%=      5-min Rain = 0
KHO1 231602Z 05006KT 13/11 A3012 RMK A01 T01340112  RH  087%=      5-min Rain = 0
KHO1 231603Z 06006KT 13/11 A3012 RMK A01 T01340112  RH  087%=      5-min Rain = 0
KHO1 231604Z 05006KT 13/11 A3012 RMK A01 T01330112  RH  087%=      5-min Rain = 0
KHO1 231605Z 05007KT 13/11 A3012 RMK A01 T01330112  RH  087%=      5-min Rain = 0
KHO1 231606Z 05007KT 13/11 A3012 RMK A01 T01330113  RH  088%=      5-min Rain = 0
KHO1 231607Z 04010KT 13/11 A3012 RMK A01 T01330113  RH  087%=      5-min Rain = 0
KHO1 231608Z 03013KT 13/11 A3012 RMK A01 T01320112  RH  087%=      5-min Rain = 0
KHO1 231609Z 03012KT 13/11 A3012 RMK A01 T01320112  RH  088%=      5-min Rain = 0
KHO1 231610Z 03010KT 13/11 A3012 RMK A01 T01310111  RH  088%=      5-min Rain = 0
KHO1 231611Z 04011KT 13/11 A3012 RMK A01 T01320113  RH  089%=      5-min Rain = 0
KHO1 231612Z 04009KT 13/11 A3012 RMK A01 T01320113  RH  088%=      5-min Rain = 0
KHO1 231613Z 04009KT 13/11 A3012 RMK A01 T01320113  RH  088%=      5-min Rain = 0
KHO1 231614Z 05009KT 13/11 A3012 RMK A01 T01330113  RH  088%=      5-min Rain = 0
KHO1 231615Z 04010KT 13/11 A3011 RMK A01 T01340112  RH  087%=      5-min Rain = 0
KHO1 231616Z 04007KT 13/11 A3011 RMK A01 T01340113  RH  087%=      5-min Rain = 0
KHO1 231617Z 04007KT 14/12 A3011 RMK A01 T01360116  RH  088%=      5-min Rain = 0
KHO1 231618Z 04007KT 14/12 A3011 RMK A01 T01370116  RH  087%=      5-min Rain = 0
KHO1 231619Z 04007KT 14/12 A3011 RMK A01 T01380116  RH  086%=      5-min Rain = 0
KHO1 231620Z 04009KT 14/11 A3011 RMK A01 T01380113  RH  085%=      5-min Rain = 0
KHO1 231621Z 04011KT 14/11 A3011 RMK A01 T01380114  RH  085%=      5-min Rain = 0
KHO1 231622Z 04010KT 14/11 A3011 RMK A01 T01370112  RH  084%=      5-min Rain = 0
KHO1 231623Z 05009KT 14/11 A3011 RMK A01 T01370112  RH  085%=      5-min Rain = 0
KHO1 231624Z 06007KT 14/11 A3011 RMK A01 T01370111  RH  084%=      5-min Rain = 0
KHO1 231625Z 05007KT 14/11 A3011 RMK A01 T01370111  RH  084%=      5-min Rain = 0
KHO1 231626Z 04011KT 14/11 A3011 RMK A01 T01380113  RH  085%=      5-min Rain = 0
KHO1 231627Z 04010KT 14/11 A3011 RMK A01 T01380113  RH  085%=      5-min Rain = 0
KHO1 231628Z 04010KT 14/11 A3011 RMK A01 T01400114  RH  085%=      5-min Rain = 0
KHO1 231629Z 04009KT 14/11 A3011 RMK A01 T01400112  RH  083%=      5-min Rain = 0
KHO1 231630Z 04010KT 14/11 A3011 RMK A01 T01400111  RH  083%=      5-min Rain = 0
KHO1 231631Z 04010KT 14/12 A3011 RMK A01 T01410118  RH  086%=      5-min Rain = 0
KHO1 231632Z 04011KT 14/11 A3011 RMK A01 T01420114  RH  083%=      5-min Rain = 0
KHO1 231633Z 04009KT 14/12 A3011 RMK A01 T01420115  RH  084%=      5-min Rain = 0
KHO1 231634Z 05008KT 14/12 A3011 RMK A01 T01420117  RH  085%=      5-min Rain = 0
KHO1 231635Z 06009KT 14/11 A3011 RMK A01 T01430114  RH  083%=      5-min Rain = 0
KHO1 231636Z 05011KT 14/11 A3011 RMK A01 T01420110  RH  081%=      5-min Rain = 0
KHO1 231637Z 04009KT 14/11 A3011 RMK A01 T01410111  RH  082%=      5-min Rain = 0
KHO1 231638Z 05007KT 14/11 A3011 RMK A01 T01410114  RH  084%=      5-min Rain = 0
KHO1 231639Z 06008KT 14/11 A3011 RMK A01 T01410112  RH  083%=      5-min Rain = 0
KHO1 231640Z 06006KT 14/11 A3011 RMK A01 T01410113  RH  083%=      5-min Rain = 0
KHO1 231641Z 06006G11KT 14/12 A3011 RMK A01 T01420115  RH  084%=      5-min Rain = 0
KHO1 231642Z 05009KT 14/11 A3011 RMK A01 T01420109  RH  080%=      5-min Rain = 0
KHO1 231643Z 06006KT 14/11 A3011 RMK A01 T01420110  RH  081%=      5-min Rain = 0
KHO1 231644Z 06007G13KT 14/11 A3011 RMK A01 T01420107  RH  079%=      5-min Rain = 0
KHO1 231645Z 05009KT 14/11 A3011 RMK A01 T01420108  RH  080%=      5-min Rain = 0
KHO1 231646Z 06009KT 14/11 A3011 RMK A01 T01420109  RH  080%=      5-min Rain = 0
KHO1 231647Z 04011KT 14/11 A3011 RMK A01 T01420111  RH  081%=      5-min Rain = 0
KHO1 231648Z 04010KT 14/11 A3011 RMK A01 T01410111  RH  082%=      5-min Rain = 0
KHO1 231649Z 06006KT 14/11 A3011 RMK A01 T01400114  RH  084%=      5-min Rain = 0
KHO1 231650Z 06007KT 14/11 A3011 RMK A01 T01410113  RH  083%=      5-min Rain = 0
KHO1 231651Z 06008KT 14/11 A3011 RMK A01 T01410110  RH  081%=      5-min Rain = 0
KHO1 231652Z 06009KT 14/11 A3011 RMK A01 T01410108  RH  080%=      5-min Rain = 0
KHO1 231653Z 05009KT 14/11 A3011 RMK A01 T01400106  RH  080%=      5-min Rain = 0
KHO1 231654Z 06008KT 14/11 A3011 RMK A01 T01400108  RH  081%=      5-min Rain = 0
KHO1 231655Z 05008KT 14/11 A3011 RMK A01 T01400108  RH  081%=      5-min Rain = 0
KHO1 231656Z 04008KT 14/11 A3011 RMK A01 T01410112  RH  082%=      5-min Rain = 0
KHO1 231657Z 04010KT 14/11 A3011 RMK A01 T01430111  RH  081%=      5-min Rain = 0
KHO1 231658Z 04009KT 14/11 A3011 RMK A01 T01420108  RH  080%=      5-min Rain = 0
KHO1 231659Z 05007KT 14/11 A3011 RMK A01 T01430109  RH  080%=      5-min Rain = 0
KHO1 231700Z 05008KT 14/11 A3011 RMK A01 T01440108  RH  079%=      5-min Rain = 0
KHO1 231701Z 05008KT 14/11 A3011 RMK A01 T01440105  RH  077%=      5-min Rain = 0
KHO1 231702Z 05008KT 15/11 A3011 RMK A01 T01450107  RH  078%=      5-min Rain = 0
KHO1 231703Z 05007KT 15/11 A3011 RMK A01 T01450107  RH  078%=      5-min Rain = 0
KHO1 231704Z 05007KT 15/11 A3011 RMK A01 T01460108  RH  078%=      5-min Rain = 0
KHO1 231705Z 03009KT 15/11 A3011 RMK A01 T01460109  RH  078%=      5-min Rain = 0
KHO1 231706Z 04011KT 15/11 A3011 RMK A01 T01450107  RH  078%=      5-min Rain = 0
KHO1 231707Z 04009KT 14/11 A3011 RMK A01 T01430106  RH  078%=      5-min Rain = 0
KHO1 231708Z 04009KT 14/11 A3011 RMK A01 T01430108  RH  079%=      5-min Rain = 0
KHO1 231709Z 04009KT 14/11 A3011 RMK A01 T01430108  RH  080%=      5-min Rain = 0
KHO1 231710Z 04009KT 14/11 A3011 RMK A01 T01420108  RH  080%=      5-min Rain = 0
KHO1 231711Z 03010KT 14/11 A3011 RMK A01 T01420108  RH  080%=      5-min Rain = 0
KHO1 231712Z 04011KT 14/11 A3011 RMK A01 T01420107  RH  079%=      5-min Rain = 0
KHO1 231713Z 05009KT 14/11 A3011 RMK A01 T01430108  RH  079%=      5-min Rain = 0
KHO1 231714Z 06008KT 14/10 A3011 RMK A01 T01440103  RH  077%=      5-min Rain = 0
KHO1 231715Z 05008KT 14/10 A3011 RMK A01 T01440103  RH  077%=      5-min Rain = 0
KHO1 231716Z 05007KT 15/11 A3011 RMK A01 T01450108  RH  079%=      5-min Rain = 0
KHO1 231717Z 04007KT 15/11 A3011 RMK A01 T01460110  RH  079%=      5-min Rain = 0
KHO1 231718Z 04008KT 15/11 A3011 RMK A01 T01470109  RH  078%=      5-min Rain = 0
KHO1 231719Z 04009KT 15/11 A3011 RMK A01 T01480107  RH  076%=      5-min Rain = 0
KHO1 231720Z 05008KT 15/11 A3011 RMK A01 T01480105  RH  076%=      5-min Rain = 0
KHO1 231721Z 04007KT 15/11 A3011 RMK A01 T01480109  RH  077%=      5-min Rain = 0
KHO1 231722Z 04010KT 15/11 A3011 RMK A01 T01480105  RH  075%=      5-min Rain = 0
KHO1 231723Z 07006KT 15/11 A3011 RMK A01 T01490108  RH  076%=      5-min Rain = 0
KHO1 231724Z 06007KT 15/11 A3011 RMK A01 T01500107  RH  076%=      5-min Rain = 0
KHO1 231725Z 05008KT 15/10 A3011 RMK A01 T01500103  RH  073%=      5-min Rain = 0
KHO1 231726Z 05009KT 15/10 A3011 RMK A01 T01490102  RH  073%=      5-min Rain = 0
KHO1 231727Z 06009KT 15/10 A3011 RMK A01 T01490101  RH  073%=      5-min Rain = 0
KHO1 231728Z 05009KT 15/10 A3011 RMK A01 T01480099  RH  073%=      5-min Rain = 0
KHO1 231729Z 05009KT 15/10 A3011 RMK A01 T01470100  RH  073%=      5-min Rain = 0
KHO1 231730Z 05006KT 15/10 A3011 RMK A01 T01470102  RH  074%=      5-min Rain = 0
KHO1 231731Z 05007KT 15/10 A3011 RMK A01 T01480103  RH  074%=      5-min Rain = 0
KHO1 231732Z 04008KT 15/10 A3011 RMK A01 T01480103  RH  075%=      5-min Rain = 0
KHO1 231733Z 05008KT 15/10 A3011 RMK A01 T01480104  RH  075%=      5-min Rain = 0
KHO1 231734Z 04011KT 15/10 A3011 RMK A01 T01490103  RH  074%=      5-min Rain = 0
KHO1 231735Z 04011KT 15/10 A3011 RMK A01 T01480102  RH  074%=      5-min Rain = 0
KHO1 231736Z 04011KT 15/10 A3011 RMK A01 T01480103  RH  074%=      5-min Rain = 0
KHO1 231737Z 04012KT 15/10 A3011 RMK A01 T01470100  RH  074%=      5-min Rain = 0
KHO1 231738Z 04009KT 15/10 A3011 RMK A01 T01470101  RH  074%=      5-min Rain = 0
KHO1 231739Z 04009KT 15/10 A3011 RMK A01 T01470102  RH  074%=      5-min Rain = 0
KHO1 231740Z 04010KT 15/10 A3011 RMK A01 T01470098  RH  072%=      5-min Rain = 0
KHO1 231741Z 04010KT 15/10 A3011 RMK A01 T01460097  RH  073%=      5-min Rain = 0
KHO1 231742Z 04009KT 15/10 A3011 RMK A01 T01470102  RH  074%=      5-min Rain = 0
KHO1 231743Z 03007KT 15/11 A3011 RMK A01 T01490106  RH  075%=      5-min Rain = 0
KHO1 231744Z 03007KT 15/10 A3011 RMK A01 T01500103  RH  074%=      5-min Rain = 0
KHO1 231745Z 04008KT 15/10 A3011 RMK A01 T01500104  RH  074%=      5-min Rain = 0
KHO1 231746Z 04011KT 15/10 A3011 RMK A01 T01510104  RH  074%=      5-min Rain = 0
KHO1 231747Z 04011KT 15/10 A3011 RMK A01 T01500102  RH  073%=      5-min Rain = 0
KHO1 231748Z 04010KT 15/10 A3011 RMK A01 T01490101  RH  073%=      5-min Rain = 0
KHO1 231749Z 03009KT 15/10 A3011 RMK A01 T01480100  RH  073%=      5-min Rain = 0
KHO1 231750Z 03011KT 15/10 A3011 RMK A01 T01480101  RH  073%=      5-min Rain = 0
KHO1 231751Z 03010KT 15/10 A3011 RMK A01 T01480101  RH  074%=      5-min Rain = 0
KHO1 231752Z 02009KT 15/10 A3011 RMK A01 T01480101  RH  073%=      5-min Rain = 0
KHO1 231753Z 02008KT 15/10 A3011 RMK A01 T01470101  RH  074%=      5-min Rain = 0
KHO1 231754Z 02009KT 15/10 A3011 RMK A01 T01480104  RH  075%=      5-min Rain = 0
KHO1 231755Z 04009KT 15/11 A3011 RMK A01 T01500106  RH  075%=      5-min Rain = 0
KHO1 231756Z 04009KT 15/10 A3011 RMK A01 T01500103  RH  073%=      5-min Rain = 0
KHO1 231757Z 03008KT 15/10 A301 RMK A01 T01500102  RH  073%=      5-min Rain = 0
KHO1 231758Z 03009KT 15/10 A301 RMK A01 T01490102  RH  073%=      5-min Rain = 0
KHO1 231759Z 02012KT 15/10 A301 RMK A01 T01500102  RH  073%=      5-min Rain = 0
KHO1 231800Z 03009KT 15/10 A301 RMK A01 T01480100  RH  073%=      5-min Rain = 0
KHO1 231801Z 02007KT 15/10 A301 RMK A01 T01480103  RH  074%=      5-min Rain = 0
KHO1 231802Z 02007KT 15/11 A301 RMK A01 T01490105  RH  075%=      5-min Rain = 0
KHO1 231803Z 03010KT 15/11 A301 RMK A01 T01500105  RH  074%=      5-min Rain = 0
KHO1 231804Z 04011KT 15/10 A301 RMK A01 T01500103  RH  073%=      5-min Rain = 0
KHO1 231805Z 04007KT 15/10 A301 RMK A01 T01510104  RH  073%=      5-min Rain = 0
KHO1 231806Z 01008KT 15/11 A301 RMK A01 T01520106  RH  074%=      5-min Rain = 0
KHO1 231807Z 02008KT 15/11 A301 RMK A01 T01510105  RH  074%=      5-min Rain = 0
KHO1 231808Z 01008KT 15/10 A301 RMK A01 T01500104  RH  074%=      5-min Rain = 0
KHO1 231809Z 01007KT 15/11 A301 RMK A01 T01500105  RH  074%=      5-min Rain = 0
KHO1 231810Z 03008KT 15/11 A301 RMK A01 T01510107  RH  075%=      5-min Rain = 0
KHO1 231811Z 04009KT 15/10 A301 RMK A01 T01520102  RH  072%=      5-min Rain = 0
KHO1 231812Z 04008KT 15/10 A301 RMK A01 T01520103  RH  073%=      5-min Rain = 0
KHO1 231813Z 04007KT 15/10 A301 RMK A01 T01520103  RH  073%=      5-min Rain = 0
KHO1 231814Z 02009KT 15/10 A301 RMK A01 T01520103  RH  072%=      5-min Rain = 0
KHO1 231815Z 01008KT 15/10 A301 RMK A01 T01510103  RH  073%=      5-min Rain = 0
KHO1 231816Z 02009KT 15/10 A301 RMK A01 T01510102  RH  072%=      5-min Rain = 0
KHO1 231817Z 02011KT 15/10 A301 RMK A01 T01510100  RH  072%=      5-min Rain = 0
KHO1 231818Z 03010KT 15/10 A301 RMK A01 T01510101  RH  072%=      5-min Rain = 0
KHO1 231819Z 03011KT 15/10 A301 RMK A01 T01510099  RH  071%=      5-min Rain = 0
KHO1 231820Z 04010KT 15/10 A301 RMK A01 T01520102  RH  072%=      5-min Rain = 0
KHO1 231821Z 03009KT 15/10 A301 RMK A01 T01530102  RH  072%=      5-min Rain = 0
KHO1 231822Z 03011KT 15/10 A301 RMK A01 T01530104  RH  072%=      5-min Rain = 0
KHO1 231823Z 02011KT 15/11 A301 RMK A01 T01540105  RH  072%=      5-min Rain = 0
KHO1 231824Z 02010KT 15/10 A301 RMK A01 T01540103  RH  072%=      5-min Rain = 0
KHO1 231825Z 02009KT 15/10 A301 RMK A01 T01530103  RH  072%=      5-min Rain = 0
KHO1 231826Z 02008KT 15/10 A301 RMK A01 T01530104  RH  072%=      5-min Rain = 0
KHO1 231827Z 03010KT 15/11 A301 RMK A01 T01540105  RH  072%=      5-min Rain = 0
KHO1 231828Z 04008KT 16/10 A301 RMK A01 T01550101  RH  070%=      5-min Rain = 0
KHO1 231829Z 04007KT 16/10 A301 RMK A01 T01550100  RH  069%=      5-min Rain = 0
KHO1 231830Z 03008KT 16/10 A301 RMK A01 T01550099  RH  069%=      5-min Rain = 0
KHO1 231831Z 04008KT 16/10 A301 RMK A01 T01560102  RH  070%=      5-min Rain = 0
KHO1 231832Z 05006KT 16/11 A301 RMK A01 T01580105  RH  071%=      5-min Rain = 0
KHO1 231833Z 04008KT 16/10 A301 RMK A01 T01590101  RH  068%=      5-min Rain = 0
KHO1 231834Z 04008KT 16/10 A301 RMK A01 T01600103  RH  069%=      5-min Rain = 0
KHO1 231835Z 04007KT 16/10 A301 RMK A01 T01600103  RH  069%=      5-min Rain = 0
KHO1 231836Z 05008KT 16/10 A301 RMK A01 T01610099  RH  067%=      5-min Rain = 0
KHO1 231837Z 05007KT 16/10 A301 RMK A01 T01600099  RH  067%=      5-min Rain = 0
KHO1 231838Z 06005KT 16/10 A301 RMK A01 T01600097  RH  066%=      5-min Rain = 0
KHO1 231839Z 07004KT 16/10 A301 RMK A01 T01600098  RH  067%=      5-min Rain = 0
KHO1 231840Z 07006KT 16/10 A301 RMK A01 T01610099  RH  066%=      5-min Rain = 0
KHO1 231841Z 05005KT 16/10 A3009 RMK A01 T01620097  RH  066%=      5-min Rain = 0
KHO1 231842Z 07005KT 16/10 A3009 RMK A01 T01620100  RH  066%=      5-min Rain = 0
KHO1 231843Z 07006KT 16/10 A3009 RMK A01 T01640102  RH  067%=      5-min Rain = 0
KHO1 231844Z 06007KT 17/10 A3009 RMK A01 T01650101  RH  066%=      5-min Rain = 0
KHO1 231845Z 04008KT 17/10 A3009 RMK A01 T01650099  RH  065%=      5-min Rain = 0
KHO1 231846Z 04008KT 16/10 A3009 RMK A01 T01640100  RH  066%=      5-min Rain = 0
KHO1 231847Z 05006KT 16/10 A3009 RMK A01 T01630101  RH  067%=      5-min Rain = 0
KHO1 231848Z 06007KT 16/10 A3009 RMK A01 T01630099  RH  066%=      5-min Rain = 0
KHO1 231849Z 07006KT 16/10 A3009 RMK A01 T01630099  RH  066%=      5-min Rain = 0
KHO1 231850Z 06005KT 16/10 A3009 RMK A01 T01630101  RH  066%=      5-min Rain = 0
KHO1 231851Z 06006KT 16/10 A3009 RMK A01 T01640100  RH  066%=      5-min Rain = 0
KHO1 231852Z 06006KT 16/10 A3009 RMK A01 T01640099  RH  065%=      5-min Rain = 0
KHO1 231853Z 06006KT 16/10 A3009 RMK A01 T01640101  RH  066%=      5-min Rain = 0
KHO1 231854Z 04009KT 16/10 A3009 RMK A01 T01640103  RH  067%=      5-min Rain = 0
KHO1 231855Z 04006KT 16/10 A3009 RMK A01 T01640104  RH  067%=      5-min Rain = 0
KHO1 231856Z 02009KT 16/10 A3009 RMK A01 T01640104  RH  068%=      5-min Rain = 0
KHO1 231857Z 02011KT 16/10 A3009 RMK A01 T01630103  RH  068%=      5-min Rain = 0
KHO1 231858Z 03010KT 16/11 A3009 RMK A01 T01620106  RH  069%=      5-min Rain = 0
KHO1 231859Z 04012KT 16/10 A3009 RMK A01 T01610101  RH  067%=      5-min Rain = 0
KHO1 231900Z 04009KT 16/10 A3009 RMK A01 T01600100  RH  067%=      5-min Rain = 0
KHO1 231901Z 04011KT 16/10 A3009 RMK A01 T01590099  RH  068%=      5-min Rain = 0
KHO1 231902Z 04010KT 16/10 A3009 RMK A01 T01590101  RH  068%=      5-min Rain = 0
KHO1 231903Z 04010KT 16/10 A3009 RMK A01 T01590102  RH  069%=      5-min Rain = 0
KHO1 231904Z 03009KT 16/10 A3009 RMK A01 T01590103  RH  069%=      5-min Rain = 0
KHO1 231905Z 03010KT 16/10 A3009 RMK A01 T01590104  RH  070%=      5-min Rain = 0
KHO1 231906Z 02010KT 16/11 A3009 RMK A01 T01590105  RH  070%=      5-min Rain = 0
KHO1 231907Z 03010KT 16/10 A3008 RMK A01 T01580103  RH  069%=      5-min Rain = 0
KHO1 231908Z 04009KT 16/11 A3009 RMK A01 T01580105  RH  071%=      5-min Rain = 0
KHO1 231909Z 03006KT 16/10 A3009 RMK A01 T01590103  RH  069%=      5-min Rain = 0
KHO1 231910Z 02009KT 16/10 A3009 RMK A01 T01590102  RH  069%=      5-min Rain = 0
KHO1 231911Z 02007KT 16/10 A3008 RMK A01 T01590104  RH  069%=      5-min Rain = 0
KHO1 231912Z 03008KT 16/11 A3008 RMK A01 T01610105  RH  069%=      5-min Rain = 0
KHO1 231913Z 04006KT 16/11 A3008 RMK A01 T01620107  RH  070%=      5-min Rain = 0
KHO1 231914Z 05007KT 16/11 A3008 RMK A01 T01640105  RH  068%=      5-min Rain = 0
KHO1 231915Z 04006KT 17/11 A3008 RMK A01 T01650105  RH  068%=      5-min Rain = 0
KHO1 231916Z 05007KT 17/11 A3008 RMK A01 T01670105  RH  067%=      5-min Rain = 0
KHO1 231917Z 06006KT 17/10 A3008 RMK A01 T01670101  RH  065%=      5-min Rain = 0
KHO1 231918Z 06006KT 17/10 A3008 RMK A01 T01680104  RH  066%=      5-min Rain = 0
KHO1 231919Z 05005KT 17/10 A3008 RMK A01 T01690102  RH  064%=      5-min Rain = 0
KHO1 231920Z 04006G11KT 17/11 A3008 RMK A01 T01700107  RH  066%=      5-min Rain = 0
KHO1 231921Z 05007KT 17/10 A3008 RMK A01 T01710104  RH  065%=      5-min Rain = 0
KHO1 231922Z 05007KT 17/10 A3008 RMK A01 T01700101  RH  064%=      5-min Rain = 0
KHO1 231923Z 05006KT 17/10 A3008 RMK A01 T01700102  RH  064%=      5-min Rain = 0
KHO1 231924Z 04005KT 17/10 A3008 RMK A01 T01700100  RH  063%=      5-min Rain = 0
KHO1 231925Z 07004KT 17/10 A3008 RMK A01 T01700104  RH  065%=      5-min Rain = 0
KHO1 231926Z 07003KT 17/10 A3008 RMK A01 T01710103  RH  064%=      5-min Rain = 0
KHO1 231927Z 07004KT 17/10 A3008 RMK A01 T01720104  RH  064%=      5-min Rain = 0
KHO1 231928Z 08003KT 17/10 A3008 RMK A01 T01740104  RH  064%=      5-min Rain = 0
KHO1 231929Z 04004G10KT 18/11 A3008 RMK A01 T01760105  RH  063%=      5-min Rain = 0
KHO1 231930Z 04006KT 18/11 A3008 RMK A01 T01760107  RH  064%=      5-min Rain = 0
KHO1 231931Z 03006KT 17/10 A3008 RMK A01 T01740103  RH  063%=      5-min Rain = 0
KHO1 231932Z 05006KT 17/11 A3008 RMK A01 T01740106  RH  064%=      5-min Rain = 0
KHO1 231933Z 05005KT 18/10 A3008 RMK A01 T01750103  RH  063%=      5-min Rain = 0
KHO1 231934Z 04005KT 18/11 A3008 RMK A01 T01760106  RH  064%=      5-min Rain = 0
KHO1 231935Z 04010KT 18/10 A3008 RMK A01 T01750104  RH  063%=      5-min Rain = 0
KHO1 231936Z 05010KT 17/10 A3008 RMK A01 T01740104  RH  064%=      5-min Rain = 0
KHO1 231937Z 05008G13KT 17/10 A3008 RMK A01 T01730101  RH  063%=      5-min Rain = 0
KHO1 231938Z 05008KT 17/10 A3008 RMK A01 T01720099  RH  062%=      5-min Rain = 0
KHO1 231939Z 03007KT 17/10 A3008 RMK A01 T01720099  RH  062%=      5-min Rain = 0
KHO1 231940Z 03006KT 17/10 A3008 RMK A01 T01710102  RH  064%=      5-min Rain = 0
KHO1 231941Z 05005KT 17/10 A3008 RMK A01 T01710104  RH  065%=      5-min Rain = 0
KHO1 231942Z 05005KT 17/10 A3007 RMK A01 T01720103  RH  064%=      5-min Rain = 0
KHO1 231943Z 06004KT 17/10 A3007 RMK A01 T01730103  RH  064%=      5-min Rain = 0
KHO1 231944Z 06004KT 17/10 A3007 RMK A01 T01740102  RH  063%=      5-min Rain = 0
KHO1 231945Z 07005KT 18/10 A3007 RMK A01 T01750103  RH  063%=      5-min Rain = 0
KHO1 231946Z 07004KT 18/11 A3007 RMK A01 T01760106  RH  063%=      5-min Rain = 0
KHO1 231947Z 06006KT 18/10 A3007 RMK A01 T01770104  RH  062%=      5-min Rain = 0
KHO1 231948Z 05005KT 18/11 A3007 RMK A01 T01780105  RH  063%=      5-min Rain = 0
KHO1 231949Z 05007KT 18/11 A3007 RMK A01 T01780105  RH  062%=      5-min Rain = 0
KHO1 231950Z 07005KT 18/10 A3007 RMK A01 T01780104  RH  062%=      5-min Rain = 0
KHO1 231951Z 06005G11KT 18/11 A3007 RMK A01 T01790109  RH  063%=      5-min Rain = 0
KHO1 231952Z 06009KT 18/11 A3007 RMK A01 T01800109  RH  063%=      5-min Rain = 0
KHO1 231953Z 06007KT 18/11 A3007 RMK A01 T01790110  RH  064%=      5-min Rain = 0
KHO1 231954Z 04009KT 18/11 A3007 RMK A01 T01780107  RH  063%=      5-min Rain = 0
KHO1 231955Z 04009KT 18/10 A3007 RMK A01 T01760104  RH  063%=      5-min Rain = 0
KHO1 231956Z 04009G14KT 18/11 A3007 RMK A01 T01750107  RH  064%=      5-min Rain = 0
KHO1 231957Z 04010KT 17/10 A3007 RMK A01 T01740101  RH  062%=      5-min Rain = 0
KHO1 231958Z 04009KT 17/10 A3007 RMK A01 T01710103  RH  064%=      5-min Rain = 0
KHO1 231959Z 05007G12KT 17/10 A3007 RMK A01 T01710104  RH  065%=      5-min Rain = 0
KHO1 232000Z 08005KT 17/11 A3007 RMK A01 T01720105  RH  064%=      5-min Rain = 0
KHO1 232001Z 05005KT 17/10 A3007 RMK A01 T01740104  RH  064%=      5-min Rain = 0
KHO1 232002Z 03009KT 17/10 A3007 RMK A01 T01740103  RH  063%=      5-min Rain = 0
KHO1 232003Z 03009KT 17/10 A3007 RMK A01 T01720102  RH  063%=      5-min Rain = 0
KHO1 232004Z 01009KT 17/10 A3007 RMK A01 T01720104  RH  064%=      5-min Rain = 0
KHO1 232005Z 04010KT 17/10 A3007 RMK A01 T01720103  RH  064%=      5-min Rain = 0
KHO1 232006Z 04007KT 17/10 A3007 RMK A01 T01720104  RH  064%=      5-min Rain = 0
KHO1 232007Z 03008KT 17/11 A3007 RMK A01 T01730106  RH  065%=      5-min Rain = 0
KHO1 232008Z 05007KT 18/10 A3007 RMK A01 T01750104  RH  063%=      5-min Rain = 0
KHO1 232009Z 06006KT 18/10 A3007 RMK A01 T01750099  RH  061%=      5-min Rain = 0
KHO1 232010Z 04009KT 18/10 A3007 RMK A01 T01750099  RH  061%=      5-min Rain = 0
KHO1 232011Z 04007KT 18/10 A3007 RMK A01 T01750101  RH  062%=      5-min Rain = 0
KHO1 232012Z 03006KT 18/10 A3007 RMK A01 T01750102  RH  062%=      5-min Rain = 0
KHO1 232013Z 03008KT 18/10 A3007 RMK A01 T01760101  RH  062%=      5-min Rain = 0
KHO1 232014Z 03010KT 18/10 A3006 RMK A01 T01750096  RH  060%=      5-min Rain = 0
KHO1 232015Z 04007KT 17/10 A3007 RMK A01 T01740100  RH  062%=      5-min Rain = 0
KHO1 232016Z 04008KT 18/10 A3007 RMK A01 T01750096  RH  060%=      5-min Rain = 0
KHO1 232017Z 04008KT 18/10 A3006 RMK A01 T01750097  RH  060%=      5-min Rain = 0
KHO1 232018Z 03007KT 18/10 A3006 RMK A01 T01750095  RH  059%=      5-min Rain = 0
KHO1 232019Z 04007KT 18/10 A3006 RMK A01 T01750099  RH  061%=      5-min Rain = 0
KHO1 232020Z 06006KT 18/10 A3006 RMK A01 T01770102  RH  062%=      5-min Rain = 0
KHO1 232021Z 03007KT 18/10 A3006 RMK A01 T01790104  RH  061%=      5-min Rain = 0
KHO1 232022Z 03008KT 18/11 A3006 RMK A01 T01800106  RH  062%=      5-min Rain = 0
KHO1 232023Z 05007KT 18/10 A3006 RMK A01 T01810103  RH  060%=      5-min Rain = 0
KHO1 232024Z 05007KT 18/10 A3006 RMK A01 T01810103  RH  060%=      5-min Rain = 0
KHO1 232025Z 05009KT 18/10 A3006 RMK A01 T01820098  RH  058%=      5-min Rain = 0
KHO1 232026Z 05007KT 18/10 A3006 RMK A01 T01810098  RH  058%=      5-min Rain = 0
KHO1 232027Z 05005KT 18/10 A3006 RMK A01 T01800101  RH  060%=      5-min Rain = 0
KHO1 232028Z 04006KT 18/10 A3006 RMK A01 T01800101  RH  060%=      5-min Rain = 0
KHO1 232029Z 02008KT 18/10 A3006 RMK A01 T01800101  RH  060%=      5-min Rain = 0
KHO1 232030Z 03011KT 18/10 A3006 RMK A01 T01800099  RH  059%=      5-min Rain = 0
KHO1 232031Z 03009KT 18/10 A3006 RMK A01 T01790101  RH  060%=      5-min Rain = 0
KHO1 232032Z 03008KT 18/10 A3006 RMK A01 T01780098  RH  060%=      5-min Rain = 0
KHO1 232033Z 04007KT 18/10 A3006 RMK A01 T01760099  RH  060%=      5-min Rain = 0
KHO1 232034Z 05008KT 18/10 A3006 RMK A01 T01770101  RH  061%=      5-min Rain = 0
KHO1 232035Z 04006KT 18/10 A3006 RMK A01 T01780102  RH  061%=      5-min Rain = 0
KHO1 232036Z 05007KT 18/10 A3006 RMK A01 T01800104  RH  061%=      5-min Rain = 0
KHO1 232037Z 06006KT 18/10 A3006 RMK A01 T01810101  RH  059%=      5-min Rain = 0
KHO1 232038Z 07005KT 18/10 A3006 RMK A01 T01830104  RH  060%=      5-min Rain = 0
KHO1 232039Z 07007KT 19/10 A3005 RMK A01 T01870102  RH  058%=      5-min Rain = 0
KHO1 232040Z 07006KT 19/10 A3006 RMK A01 T01890100  RH  056%=      5-min Rain = 0
KHO1 232041Z 07005KT 19/10 A3005 RMK A01 T01900099  RH  055%=      5-min Rain = 0
KHO1 232042Z 07005KT 19/10 A3005 RMK A01 T01910097  RH  054%=      5-min Rain = 0
KHO1 232043Z 07006KT 19/10 A3005 RMK A01 T01900097  RH  055%=      5-min Rain = 0
KHO1 232044Z 08005KT 19/10 A3005 RMK A01 T01900099  RH  055%=      5-min Rain = 0
KHO1 232045Z 07006KT 19/10 A3005 RMK A01 T01900098  RH  055%=      5-min Rain = 0
KHO1 232046Z 06005KT 19/09 A3005 RMK A01 T01890094  RH  054%=      5-min Rain = 0
KHO1 232047Z 07006KT 19/10 A3005 RMK A01 T01880097  RH  055%=      5-min Rain = 0
KHO1 232048Z 05005KT 19/10 A3005 RMK A01 T01880095  RH  054%=      5-min Rain = 0
KHO1 232049Z 05006KT 19/10 A3005 RMK A01 T01880099  RH  056%=      5-min Rain = 0
KHO1 232050Z 06007KT 19/09 A3005 RMK A01 T01890094  RH  054%=      5-min Rain = 0
KHO1 232051Z 06005KT 19/10 A3005 RMK A01 T01890096  RH  055%=      5-min Rain = 0
KHO1 232052Z 05006KT 19/09 A3005 RMK A01 T01880093  RH  054%=      5-min Rain = 0
KHO1 232053Z 05009KT 19/09 A3005 RMK A01 T01870094  RH  055%=      5-min Rain = 0
KHO1 232054Z 03008KT 19/09 A3005 RMK A01 T01880094  RH  055%=      5-min Rain = 0
KHO1 232055Z 03007KT 19/10 A3005 RMK A01 T01870095  RH  055%=      5-min Rain = 0
KHO1 232056Z 05006KT 19/10 A3005 RMK A01 T01880095  RH  055%=      5-min Rain = 0
KHO1 232057Z 06007KT 19/10 A3005 RMK A01 T01910097  RH  054%=      5-min Rain = 0
KHO1 232058Z 06006KT 19/10 A3005 RMK A01 T01940097  RH  053%=      5-min Rain = 0
KHO1 232059Z 07007KT 20/10 A3005 RMK A01 T01950097  RH  053%=      5-min Rain = 0
KHO1 232100Z 09006KT 20/09 A3004 RMK A01 T01950092  RH  051%=      5-min Rain = 0
KHO1 232101Z 07007KT 20/10 A3004 RMK A01 T01950096  RH  053%=      5-min Rain = 0
KHO1 232102Z 05009KT 20/10 A3004 RMK A01 T01960097  RH  053%=      5-min Rain = 0
KHO1 232103Z 04008KT 20/10 A3004 RMK A01 T01950097  RH  053%=      5-min Rain = 0
KHO1 232104Z 04007KT 19/10 A3004 RMK A01 T01940096  RH  053%=      5-min Rain = 0
KHO1 232105Z 04008KT 19/10 A3004 RMK A01 T01930100  RH  055%=      5-min Rain = 0
KHO1 232106Z 03007KT 19/09 A3004 RMK A01 T01930092  RH  052%=      5-min Rain = 0
KHO1 232107Z 03007KT 19/10 A3004 RMK A01 T01900097  RH  055%=      5-min Rain = 0
KHO1 232108Z 05009KT 19/10 A3004 RMK A01 T01890099  RH  056%=      5-min Rain = 0
KHO1 232109Z 05007KT 19/10 A3004 RMK A01 T01910101  RH  056%=      5-min Rain = 0
KHO1 232110Z 05008KT 19/10 A3004 RMK A01 T01920100  RH  055%=      5-min Rain = 0
KHO1 232111Z 04008KT 19/09 A3004 RMK A01 T01920094  RH  053%=      5-min Rain = 0
KHO1 232112Z 04006KT 19/10 A3004 RMK A01 T01920100  RH  055%=      5-min Rain = 0
KHO1 232113Z 05007KT 19/10 A3004 RMK A01 T01930097  RH  054%=      5-min Rain = 0
KHO1 232114Z 04008KT 19/09 A3004 RMK A01 T01930094  RH  053%=      5-min Rain = 0
KHO1 232115Z 05005KT 19/09 A3004 RMK A01 T01900093  RH  054%=      5-min Rain = 0
KHO1 232116Z 07006KT 19/09 A3004 RMK A01 T01890094  RH  054%=      5-min Rain = 0
KHO1 232117Z 05009KT 19/09 A3004 RMK A01 T01870091  RH  053%=      5-min Rain = 0
KHO1 232118Z 05009KT 19/09 A3004 RMK A01 T01860092  RH  054%=      5-min Rain = 0
KHO1 232119Z 05004KT 19/09 A3004 RMK A01 T01850094  RH  055%=      5-min Rain = 0
KHO1 232120Z 09003KT 19/10 A3004 RMK A01 T01850098  RH  057%=      5-min Rain = 0
KHO1 232121Z 05003KT 19/11 A3004 RMK A01 T01890108  RH  059%=      5-min Rain = 0
KHO1 232122Z 06006KT 20/10 A3004 RMK A01 T01950104  RH  056%=      5-min Rain = 0
KHO1 232123Z 04007KT 20/10 A3004 RMK A01 T01980101  RH  053%=      5-min Rain = 0
KHO1 232124Z 05005KT 20/10 A3004 RMK A01 T01950096  RH  053%=      5-min Rain = 0
KHO1 232125Z 07005KT 20/10 A3004 RMK A01 T01950097  RH  053%=      5-min Rain = 0
KHO1 232126Z 04011KT 20/10 A3004 RMK A01 T01960095  RH  052%=      5-min Rain = 0
KHO1 232127Z 03010KT 20/09 A3004 RMK A01 T01950093  RH  052%=      5-min Rain = 0
KHO1 232128Z 04007KT 19/09 A3004 RMK A01 T01940091  RH  051%=      5-min Rain = 0
KHO1 232129Z 04010G15KT 20/10 A3003 RMK A01 T01950099  RH  054%=      5-min Rain = 0
KHO1 232130Z 03011KT 19/10 A3003 RMK A01 T01940098  RH  054%=      5-min Rain = 0
KHO1 232131Z 03011KT 19/09 A3003 RMK A01 T01910094  RH  053%=      5-min Rain = 0
KHO1 232132Z 04008KT 19/10 A3004 RMK A01 T01900095  RH  054%=      5-min Rain = 0
KHO1 232133Z 03008KT 19/10 A3004 RMK A01 T01900096  RH  054%=      5-min Rain = 0
KHO1 232134Z 03012KT 19/10 A3003 RMK A01 T01880101  RH  057%=      5-min Rain = 0
KHO1 232135Z 03012KT 19/10 A3003 RMK A01 T01850103  RH  059%=      5-min Rain = 0
KHO1 232136Z 03013KT 18/10 A3003 RMK A01 T01820103  RH  060%=      5-min Rain = 0
KHO1 232137Z 02013KT 18/10 A3003 RMK A01 T01830104  RH  060%=      5-min Rain = 0
KHO1 232138Z 01014KT 18/11 A3003 RMK A01 T01840105  RH  060%=      5-min Rain = 0
KHO1 232139Z 03013KT 19/11 A3003 RMK A01 T01870109  RH  060%=      5-min Rain = 0
KHO1 232140Z 03013KT 19/10 A3003 RMK A01 T01880103  RH  058%=      5-min Rain = 0
KHO1 232141Z 02013KT 19/10 A3003 RMK A01 T01860103  RH  058%=      5-min Rain = 0
KHO1 232142Z 03011KT 18/10 A3003 RMK A01 T01840102  RH  059%=      5-min Rain = 0
KHO1 232143Z 02012KT 18/11 A3003 RMK A01 T01830105  RH  060%=      5-min Rain = 0
KHO1 232144Z 03013KT 18/11 A3003 RMK A01 T01830105  RH  060%=      5-min Rain = 0
KHO1 232145Z 03014KT 18/10 A3003 RMK A01 T01820103  RH  060%=      5-min Rain = 0
KHO1 232146Z 03010KT 18/10 A3003 RMK A01 T01810103  RH  060%=      5-min Rain = 0
KHO1 232147Z 04013KT 18/10 A3003 RMK A01 T01810101  RH  060%=      5-min Rain = 0
KHO1 232148Z 04009G15KT 18/11 A3003 RMK A01 T01800105  RH  061%=      5-min Rain = 0
KHO1 232149Z 04012KT 18/10 A3003 RMK A01 T01810104  RH  061%=      5-min Rain = 0
KHO1 232150Z 04013KT 18/10 A3003 RMK A01 T01810102  RH  060%=      5-min Rain = 0
KHO1 232151Z 04011KT 18/10 A3003 RMK A01 T01810100  RH  059%=      5-min Rain = 0
KHO1 232152Z 04010KT 18/10 A3003 RMK A01 T01800101  RH  060%=      5-min Rain = 0
KHO1 232153Z 04010KT 18/10 A3003 RMK A01 T01810101  RH  059%=      5-min Rain = 0
KHO1 232154Z 04012KT 18/10 A3003 RMK A01 T01810098  RH  058%=      5-min Rain = 0
KHO1 232155Z 05009KT 18/10 A3003 RMK A01 T01800101  RH  060%=      5-min Rain = 0
KHO1 232156Z 05007KT 18/10 A3003 RMK A01 T01810102  RH  060%=      5-min Rain = 0
KHO1 232157Z 05007KT 18/10 A3003 RMK A01 T01820102  RH  060%=      5-min Rain = 0
KHO1 232158Z 04006KT 18/11 A3003 RMK A01 T01830107  RH  061%=      5-min Rain = 0
KHO1 232159Z 05008KT 19/10 A3003 RMK A01 T01850102  RH  059%=      5-min Rain = 0
KHO1 232200Z 04009KT 19/10 A3003 RMK A01 T01850103  RH  059%=      5-min Rain = 0
KHO1 232201Z 04010KT 19/10 A3003 RMK A01 T01850100  RH  058%=      5-min Rain = 0
KHO1 232202Z 03009KT 18/10 A3003 RMK A01 T01840099  RH  057%=      5-min Rain = 0
KHO1 232203Z 03008G13KT 18/10 A3003 RMK A01 T01840100  RH  058%=      5-min Rain = 0
KHO1 232204Z 02009KT 18/10 A3003 RMK A01 T01830099  RH  058%=      5-min Rain = 0
KHO1 232205Z 03009KT 18/10 A3003 RMK A01 T01840102  RH  058%=      5-min Rain = 0
KHO1 232206Z 04008KT 19/11 A3003 RMK A01 T01890108  RH  059%=      5-min Rain = 0
KHO1 232207Z 04007KT 19/11 A3003 RMK A01 T01930106  RH  057%=      5-min Rain = 0
KHO1 232208Z 03008KT 19/10 A3003 RMK A01 T01940104  RH  056%=      5-min Rain = 0
KHO1 232209Z 03009KT 19/10 A3003 RMK A01 T01920103  RH  056%=      5-min Rain = 0
KHO1 232210Z 03009G14KT 19/10 A3002 RMK A01 T01890101  RH  057%=      5-min Rain = 0
KHO1 232211Z 03013KT 19/10 A3002 RMK A01 T01870098  RH  056%=      5-min Rain = 0
KHO1 232212Z 04012KT 19/10 A3002 RMK A01 T01850097  RH  056%=      5-min Rain = 0
KHO1 232213Z 04011KT 18/10 A3003 RMK A01 T01840099  RH  058%=      5-min Rain = 0
KHO1 232214Z 06007KT 18/10 A3003 RMK A01 T01840102  RH  059%=      5-min Rain = 0
KHO1 232215Z 06010G15KT 18/10 A3003 RMK A01 T01840103  RH  059%=      5-min Rain = 0
KHO1 232216Z 05012KT 18/10 A3003 RMK A01 T01830102  RH  059%=      5-min Rain = 0
KHO1 232217Z 05013G18KT 18/10 A3003 RMK A01 T01810104  RH  061%=      5-min Rain = 0
KHO1 232218Z 05010KT 18/11 A3003 RMK A01 T01790105  RH  062%=      5-min Rain = 0
KHO1 232219Z 05008KT 18/11 A3003 RMK A01 T01780108  RH  063%=      5-min Rain = 0
KHO1 232220Z 04009G15KT 18/11 A3003 RMK A01 T01770107  RH  063%=      5-min Rain = 0
KHO1 232221Z 04013KT 18/11 A3003 RMK A01 T01770106  RH  063%=      5-min Rain = 0
KHO1 232222Z 05010KT 18/11 A3003 RMK A01 T01770107  RH  064%=      5-min Rain = 0
KHO1 232223Z 05009KT 18/11 A3003 RMK A01 T01770108  RH  064%=      5-min Rain = 0
KHO1 232224Z 05010G15KT 18/10 A3003 RMK A01 T01760104  RH  062%=      5-min Rain = 0
KHO1 232225Z 05011KT 18/10 A3003 RMK A01 T01750100  RH  061%=      5-min Rain = 0
KHO1 232226Z 06009KT 18/10 A3003 RMK A01 T01750101  RH  062%=      5-min Rain = 0
KHO1 232227Z 04009KT 18/10 A3003 RMK A01 T01750102  RH  062%=      5-min Rain = 0
KHO1 232228Z 04010KT 18/10 A3003 RMK A01 T01750104  RH  063%=      5-min Rain = 0
KHO1 232229Z 04009KT 18/10 A3003 RMK A01 T01750104  RH  063%=      5-min Rain = 0
KHO1 232230Z 05009KT 18/10 A3003 RMK A01 T01750103  RH  063%=      5-min Rain = 0
KHO1 232231Z 04011KT 18/10 A3003 RMK A01 T01750102  RH  062%=      5-min Rain = 0
KHO1 232232Z 04011KT 18/11 A3003 RMK A01 T01750105  RH  064%=      5-min Rain = 0
KHO1 232233Z 04009KT 18/11 A3003 RMK A01 T01750108  RH  065%=      5-min Rain = 0
KHO1 232234Z 04011KT 18/11 A3003 RMK A01 T01750107  RH  064%=      5-min Rain = 0
KHO1 232235Z 04011KT 18/11 A3003 RMK A01 T01750107  RH  065%=      5-min Rain = 0
KHO1 232236Z 04009G14KT 18/11 A3003 RMK A01 T01750109  RH  065%=      5-min Rain = 0
KHO1 232237Z 04012KT 18/11 A3003 RMK A01 T01750106  RH  064%=      5-min Rain = 0
KHO1 232238Z 05011KT 18/11 A3003 RMK A01 T01750108  RH  065%=      5-min Rain = 0
KHO1 232239Z 05010G15KT 18/11 A3003 RMK A01 T01750108  RH  064%=      5-min Rain = 0
KHO1 232240Z 05011KT 18/11 A3002 RMK A01 T01750105  RH  064%=      5-min Rain = 0
KHO1 232241Z 04011KT 18/11 A3002 RMK A01 T01750107  RH  064%=      5-min Rain = 0
KHO1 232242Z 04013KT 18/11 A3002 RMK A01 T01760107  RH  064%=      5-min Rain = 0
KHO1 232243Z 04013KT 18/11 A3002 RMK A01 T01760106  RH  064%=      5-min Rain = 0
KHO1 232244Z 04011KT 18/11 A3002 RMK A01 T01760107  RH  064%=      5-min Rain = 0
KHO1 232245Z 03012KT 18/11 A3002 RMK A01 T01760106  RH  064%=      5-min Rain = 0
KHO1 232246Z 03012KT 18/11 A3002 RMK A01 T01760110  RH  065%=      5-min Rain = 0
KHO1 232247Z 04012KT 18/11 A3003 RMK A01 T01770112  RH  066%=      5-min Rain = 0
KHO1 232248Z 03014KT 18/11 A3002 RMK A01 T01760113  RH  066%=      5-min Rain = 0
KHO1 232249Z 02014KT 18/11 A3002 RMK A01 T01750113  RH  067%=      5-min Rain = 0
KHO1 232250Z 03012KT 18/11 A3003 RMK A01 T01750114  RH  067%=      5-min Rain = 0
KHO1 232251Z 04013KT 18/11 A3002 RMK A01 T01760113  RH  067%=      5-min Rain = 0
KHO1 232252Z 03012KT 18/11 A3002 RMK A01 T01760113  RH  067%=      5-min Rain = 0
KHO1 232253Z 03014KT 18/11 A3002 RMK A01 T01750111  RH  066%=      5-min Rain = 0
KHO1 232254Z 03016KT 18/11 A3002 RMK A01 T01750111  RH  066%=      5-min Rain = 0
KHO1 232255Z 03012KT 17/11 A3002 RMK A01 T01740111  RH  066%=      5-min Rain = 0
KHO1 232256Z 03013KT 17/11 A3002 RMK A01 T01740110  RH  066%=      5-min Rain = 0
KHO1 232257Z 03011KT 17/11 A3002 RMK A01 T01740111  RH  067%=      5-min Rain = 0
KHO1 232258Z 03015KT 17/11 A3002 RMK A01 T01740111  RH  066%=      5-min Rain = 0
KHO1 232259Z 03014KT 17/11 A3002 RMK A01 T01740111  RH  066%=      5-min Rain = 0
KHO1 232300Z 02012KT 17/11 A3002 RMK A01 T01740112  RH  067%=      5-min Rain = 0
KHO1 232301Z 03016KT 18/11 A3002 RMK A01 T01750112  RH  066%=      5-min Rain = 0
KHO1 232302Z 04011KT 18/11 A3002 RMK A01 T01750111  RH  066%=      5-min Rain = 0
KHO1 232303Z 05013KT 18/11 A3002 RMK A01 T01760109  RH  064%=      5-min Rain = 0
KHO1 232304Z 04012KT 18/11 A3002 RMK A01 T01770109  RH  064%=      5-min Rain = 0
KHO1 232305Z 04011KT 18/11 A3002 RMK A01 T01770110  RH  065%=      5-min Rain = 0
KHO1 232306Z 03015G20KT 18/11 A3002 RMK A01 T01780113  RH  066%=      5-min Rain = 0
KHO1 232307Z 04018KT 18/12 A3002 RMK A01 T01750115  RH  068%=      5-min Rain = 0
KHO1 232308Z 03018KT 17/12 A3002 RMK A01 T01720115  RH  069%=      5-min Rain = 0
KHO1 232309Z 03019KT 17/11 A3002 RMK A01 T01680114  RH  070%=      5-min Rain = 0
KHO1 232310Z 03019KT 17/11 A3002 RMK A01 T01650114  RH  071%=      5-min Rain = 0
KHO1 232311Z 03016KT 16/12 A3002 RMK A01 T01640115  RH  073%=      5-min Rain = 0
KHO1 232312Z 03017KT 16/11 A3002 RMK A01 T01630114  RH  073%=      5-min Rain = 0
KHO1 232313Z 03014KT 16/12 A3002 RMK A01 T01630116  RH  074%=      5-min Rain = 0
KHO1 232314Z 03013KT 16/12 A3002 RMK A01 T01630116  RH  074%=      5-min Rain = 0
KHO1 232315Z 03013KT 16/12 A3002 RMK A01 T01630116  RH  074%=      5-min Rain = 0
KHO1 232316Z 03016KT 16/11 A3002 RMK A01 T01630114  RH  073%=      5-min Rain = 0
KHO1 232317Z 03014KT 16/12 A3002 RMK A01 T01630115  RH  073%=      5-min Rain = 0
KHO1 232318Z 03013KT 16/12 A3002 RMK A01 T01630115  RH  073%=      5-min Rain = 0
KHO1 232319Z 03014KT 16/12 A3002 RMK A01 T01630115  RH  073%=      5-min Rain = 0
KHO1 232320Z 04013KT 16/12 A3002 RMK A01 T01640115  RH  073%=      5-min Rain = 0
KHO1 232321Z 03015KT 16/11 A3002 RMK A01 T01630114  RH  072%=      5-min Rain = 0
KHO1 232322Z 03011KT 16/12 A3002 RMK A01 T01630115  RH  073%=      5-min Rain = 0
KHO1 232323Z 03013KT 16/12 A3002 RMK A01 T01630115  RH  073%=      5-min Rain = 0
KHO1 232324Z 04015KT 16/11 A3002 RMK A01 T01630113  RH  073%=      5-min Rain = 0
KHO1 232325Z 03014KT 16/11 A3002 RMK A01 T01620114  RH  073%=      5-min Rain = 0
KHO1 232326Z 04013G18KT 16/11 A3002 RMK A01 T01610112  RH  073%=      5-min Rain = 0
KHO1 232327Z 04013G18KT 16/11 A3002 RMK A01 T01610112  RH  073%=      5-min Rain = 0
KHO1 232328Z 04014G19KT 16/11 A3002 RMK A01 T01610110  RH  072%=      5-min Rain = 0
KHO1 232329Z 03014KT 16/11 A3002 RMK A01 T01600111  RH  073%=      5-min Rain = 0
KHO1 232330Z 03016KT 16/11 A3002 RMK A01 T01600111  RH  073%=      5-min Rain = 0
KHO1 232331Z 03013KT 16/11 A3001 RMK A01 T01590112  RH  073%=      5-min Rain = 0
KHO1 232332Z 03011KT 16/11 A3002 RMK A01 T01600113  RH  074%=      5-min Rain = 0
KHO1 232333Z 03016KT 16/11 A3002 RMK A01 T01600111  RH  073%=      5-min Rain = 0
KHO1 232334Z 02016KT 16/11 A3002 RMK A01 T01590110  RH  073%=      5-min Rain = 0
KHO1 232335Z 03016KT 16/11 A3001 RMK A01 T01580110  RH  073%=      5-min Rain = 0
KHO1 232336Z 03015KT 16/11 A3002 RMK A01 T01580109  RH  073%=      5-min Rain = 0
KHO1 232337Z 03015KT 16/11 A3001 RMK A01 T01580109  RH  073%=      5-min Rain = 0
KHO1 232338Z 03017KT 16/11 A3001 RMK A01 T01570109  RH  073%=      5-min Rain = 0
KHO1 232339Z 03016KT 16/11 A3002 RMK A01 T01570110  RH  073%=      5-min Rain = 0
KHO1 232340Z 03014KT 16/11 A3002 RMK A01 T01570111  RH  074%=      5-min Rain = 0
KHO1 232341Z 03013KT 16/11 A3002 RMK A01 T01580111  RH  074%=      5-min Rain = 0
KHO1 232342Z 03014KT 16/11 A3002 RMK A01 T01580111  RH  074%=      5-min Rain = 0
KHO1 232343Z 03015KT 16/11 A3002 RMK A01 T01580111  RH  073%=      5-min Rain = 0
KHO1 232344Z 03014G19KT 16/11 A3002 RMK A01 T01580111  RH  073%=      5-min Rain = 0
KHO1 232345Z 03015KT 16/11 A3002 RMK A01 T01580110  RH  073%=      5-min Rain = 0
KHO1 232346Z 03016KT 16/11 A3002 RMK A01 T01570109  RH  073%=      5-min Rain = 0
KHO1 232347Z 03014KT 16/11 A3002 RMK A01 T01570109  RH  073%=      5-min Rain = 0
KHO1 232348Z 03014KT 16/11 A3002 RMK A01 T01570110  RH  073%=      5-min Rain = 0
KHO1 232349Z 04013G18KT 16/11 A3002 RMK A01 T01570112  RH  075%=      5-min Rain = 0
KHO1 232350Z 04015KT 16/11 A3002 RMK A01 T01560112  RH  075%=      5-min Rain = 0
KHO1 232351Z 03014KT 16/11 A3002 RMK A01 T01560113  RH  075%=      5-min Rain = 0
KHO1 232352Z 04015KT 16/11 A3002 RMK A01 T01550112  RH  075%=      5-min Rain = 0
KHO1 232353Z 04016KT 15/11 A3002 RMK A01 T01540111  RH  075%=      5-min Rain = 0
KHO1 232354Z 04013KT 15/11 A3002 RMK A01 T01540112  RH  076%=      5-min Rain = 0
KHO1 232355Z 04016KT 15/11 A3002 RMK A01 T01540111  RH  076%=      5-min Rain = 0
KHO1 232356Z 04013G18KT 15/11 A3002 RMK A01 T01540111  RH  076%=      5-min Rain = 0
KHO1 232357Z 03013KT 15/11 A3002 RMK A01 T01540111  RH  076%=      5-min Rain = 0
KHO1 232358Z 02014KT 15/11 A3002 RMK A01 T01540111  RH  076%=      5-min Rain = 0
KHO1 232359Z 02016KT 15/11 A3002 RMK A01 T01530108  RH  075%=      5-min Rain = 0
KHO1 240000Z 03016KT 15/11 A3002 RMK A01 T01520108  RH  075%=      5-min Rain = 0
KHO1 240001Z 03013KT 15/11 A3002 RMK A01 T01520108  RH  075%=      5-min Rain = 0
KHO1 240002Z 03013KT 15/11 A3002 RMK A01 T01520108  RH  075%=      5-min Rain = 0
KHO1 240003Z 02012KT 15/11 A3002 RMK A01 T01520109  RH  075%=      5-min Rain = 0
KHO1 240004Z 03013KT 15/11 A3003 RMK A01 T01520110  RH  076%=      5-min Rain = 0
KHO1 240005Z 04012G17KT 15/11 A3003 RMK A01 T01530110  RH  075%=      5-min Rain = 0
KHO1 240006Z 03015KT 15/11 A3003 RMK A01 T01520108  RH  075%=      5-min Rain = 0
KHO1 240007Z 02014KT 15/11 A3003 RMK A01 T01520107  RH  075%=      5-min Rain = 0
KHO1 240008Z 02013KT 15/11 A3003 RMK A01 T01510107  RH  075%=      5-min Rain = 0
KHO1 240009Z 03013KT 15/11 A3003 RMK A01 T01510107  RH  075%=      5-min Rain = 0
KHO1 240010Z 03012KT 15/11 A3003 RMK A01 T01510108  RH  075%=      5-min Rain = 0
KHO1 240011Z 03013KT 15/11 A3003 RMK A01 T01510107  RH  075%=      5-min Rain = 0
KHO1 240012Z 03013KT 15/11 A3003 RMK A01 T01510106  RH  075%=      5-min Rain = 0
KHO1 240013Z 03011KT 15/11 A3003 RMK A01 T01510107  RH  075%=      5-min Rain = 0
KHO1 240014Z 03014KT 15/11 A3003 RMK A01 T01510107  RH  075%=      5-min Rain = 0
KHO1 240015Z 03013KT 15/11 A3003 RMK A01 T01510108  RH  075%=      5-min Rain = 0
KHO1 240016Z 03011KT 15/11 A3003 RMK A01 T01510109  RH  076%=      5-min Rain = 0
KHO1 240017Z 03011KT 15/11 A3003 RMK A01 T01510109  RH  076%=      5-min Rain = 0
KHO1 240018Z 03013KT 15/11 A3003 RMK A01 T01510109  RH  076%=      5-min Rain = 0
KHO1 240019Z 03012KT 15/11 A3003 RMK A01 T01510109  RH  076%=      5-min Rain = 0
KHO1 240020Z 03011KT 15/11 A3003 RMK A01 T01510110  RH  076%=      5-min Rain = 0
KHO1 240021Z 03015KT 15/11 A3003 RMK A01 T01510110  RH  076%=      5-min Rain = 0
KHO1 240022Z 03015G20KT 15/11 A3003 RMK A01 T01510109  RH  076%=      5-min Rain = 0
KHO1 240023Z 03013KT 15/11 A3003 RMK A01 T01500110  RH  077%=      5-min Rain = 0
KHO1 240024Z 04011KT 15/11 A3004 RMK A01 T01500110  RH  077%=      5-min Rain = 0
KHO1 240025Z 04012KT 15/11 A3004 RMK A01 T01500110  RH  077%=      5-min Rain = 0
KHO1 240026Z 03012KT 15/11 A3004 RMK A01 T01500110  RH  077%=      5-min Rain = 0
KHO1 240027Z 04013KT 15/11 A3004 RMK A01 T01490109  RH  077%=      5-min Rain = 0
KHO1 240028Z 03015KT 15/11 A3003 RMK A01 T01480107  RH  076%=      5-min Rain = 0
KHO1 240029Z 04013KT 15/11 A3004 RMK A01 T01470107  RH  077%=      5-min Rain = 0
KHO1 240030Z 04011KT 15/11 A3004 RMK A01 T01470107  RH  077%=      5-min Rain = 0
KHO1 240031Z 04014KT 15/11 A3004 RMK A01 T01470107  RH  077%=      5-min Rain = 0
KHO1 240032Z 04012KT 15/11 A3004 RMK A01 T01460107  RH  077%=      5-min Rain = 0
KHO1 240033Z 04013KT 15/11 A3004 RMK A01 T01460107  RH  077%=      5-min Rain = 0
KHO1 240034Z 04013KT 15/11 A3004 RMK A01 T01460106  RH  077%=      5-min Rain = 0
KHO1 240035Z 04010KT 15/11 A3004 RMK A01 T01460107  RH  078%=      5-min Rain = 0
KHO1 240036Z 04014KT 15/11 A3004 RMK A01 T01460106  RH  077%=      5-min Rain = 0
KHO1 240037Z 04013KT 15/11 A3004 RMK A01 T01450107  RH  077%=      5-min Rain = 0
KHO1 240038Z 04015KT 15/11 A3004 RMK A01 T01450106  RH  077%=      5-min Rain = 0
KHO1 240039Z 04014KT 15/11 A3004 RMK A01 T01450106  RH  078%=      5-min Rain = 0
KHO1 240040Z 04013KT 15/11 A3004 RMK A01 T01450107  RH  078%=      5-min Rain = 0
KHO1 240041Z 04011KT 15/11 A3004 RMK A01 T01450107  RH  078%=      5-min Rain = 0
KHO1 240042Z 03010KT 15/11 A3004 RMK A01 T01450108  RH  078%=      5-min Rain = 0
KHO1 240043Z 03013KT 15/11 A3004 RMK A01 T01450106  RH  078%=      5-min Rain = 0
KHO1 240044Z 03013KT 15/11 A3004 RMK A01 T01450106  RH  078%=      5-min Rain = 0
KHO1 240045Z 03014KT 14/11 A3004 RMK A01 T01440106  RH  078%=      5-min Rain = 0
KHO1 240046Z 03016KT 14/11 A3004 RMK A01 T01430106  RH  078%=      5-min Rain = 0
KHO1 240047Z 03015KT 14/11 A3004 RMK A01 T01430105  RH  078%=      5-min Rain = 0
KHO1 240048Z 03016KT 14/11 A3004 RMK A01 T01420105  RH  078%=      5-min Rain = 0
KHO1 240049Z 03013KT 14/11 A3004 RMK A01 T01420106  RH  079%=      5-min Rain = 0
KHO1 240050Z 04013KT 14/11 A3004 RMK A01 T01420107  RH  079%=      5-min Rain = 0
KHO1 240051Z 04012KT 14/11 A3004 RMK A01 T01420107  RH  080%=      5-min Rain = 0
KHO1 240052Z 04009KT 14/11 A3004 RMK A01 T01420107  RH  080%=      5-min Rain = 0
KHO1 240053Z 04012KT 14/11 A3003 RMK A01 T01420107  RH  079%=      5-min Rain = 0
KHO1 240054Z 04016KT 14/11 A3003 RMK A01 T01410105  RH  079%=      5-min Rain = 0
KHO1 240055Z 04012KT 14/11 A3003 RMK A01 T01410105  RH  079%=      5-min Rain = 0
KHO1 240056Z 04012KT 14/11 A3003 RMK A01 T01410106  RH  079%=      5-min Rain = 0
KHO1 240057Z 04015KT 14/10 A3003 RMK A01 T01400104  RH  079%=      5-min Rain = 0
KHO1 240058Z 03013KT 14/10 A3003 RMK A01 T01400104  RH  079%=      5-min Rain = 0
KHO1 240059Z 04014KT 14/10 A3003 RMK A01 T01400104  RH  079%=      5-min Rain = 0
KHO1 240100Z 04014KT 14/11 A3003 RMK A01 T01400105  RH  079%=      5-min Rain = 0
KHO1 240101Z 04010KT 14/11 A3003 RMK A01 T01400106  RH  080%=      5-min Rain = 0
KHO1 240102Z 04009KT 14/11 A3003 RMK A01 T01400107  RH  080%=      5-min Rain = 0
KHO1 240103Z 04011KT 14/11 A3003 RMK A01 T01400106  RH  080%=      5-min Rain = 0
KHO1 240104Z 04014KT 14/11 A3002 RMK A01 T01390105  RH  080%=      5-min Rain = 0
KHO1 240105Z 04015KT 14/10 A3002 RMK A01 T01390104  RH  080%=      5-min Rain = 0
KHO1 240106Z 04014KT 14/11 A3002 RMK A01 T01380105  RH  080%=      5-min Rain = 0
KHO1 240107Z 04016KT 14/10 A3002 RMK A01 T01380104  RH  080%=      5-min Rain = 0
KHO1 240108Z 03016KT 14/10 A3002 RMK A01 T01370103  RH  080%=      5-min Rain = 0
KHO1 240109Z 04014KT 14/10 A3002 RMK A01 T01370103  RH  080%=      5-min Rain = 0
KHO1 240110Z 04016KT 14/10 A3002 RMK A01 T01370103  RH  080%=      5-min Rain = 0
KHO1 240111Z 04015G21KT 14/10 A3002 RMK A01 T01370103  RH  080%=      5-min Rain = 0
KHO1 240112Z 03014G19KT 14/10 A3002 RMK A01 T01370104  RH  080%=      5-min Rain = 0
KHO1 240113Z 04015KT 14/10 A3002 RMK A01 T01370103  RH  080%=      5-min Rain = 0
KHO1 240114Z 04012KT 14/10 A3002 RMK A01 T01370103  RH  080%=      5-min Rain = 0
KHO1 240115Z 04012KT 14/10 A3002 RMK A01 T01370102  RH  080%=      5-min Rain = 0
KHO1 240116Z 04011KT 14/10 A3002 RMK A01 T01360103  RH  080%=      5-min Rain = 0
KHO1 240117Z 04013KT 14/10 A3002 RMK A01 T01360102  RH  080%=      5-min Rain = 0
KHO1 240118Z 04010KT 14/10 A3003 RMK A01 T01360102  RH  080%=      5-min Rain = 0
KHO1 240119Z 04016KT 14/10 A3003 RMK A01 T01360103  RH  080%=      5-min Rain = 0
KHO1 240120Z 04013KT 14/10 A3003 RMK A01 T01360104  RH  081%=      5-min Rain = 0
KHO1 240121Z 04014KT 14/10 A3003 RMK A01 T01360104  RH  081%=      5-min Rain = 0
KHO1 240122Z 04015KT 14/10 A3003 RMK A01 T01350103  RH  081%=      5-min Rain = 0
KHO1 240123Z 04014KT 14/10 A3003 RMK A01 T01350103  RH  081%=      5-min Rain = 0
KHO1 240124Z 03013KT 13/10 A3003 RMK A01 T01340103  RH  081%=      5-min Rain = 0
KHO1 240125Z 04014KT 13/10 A3003 RMK A01 T01340103  RH  081%=      5-min Rain = 0
KHO1 240126Z 04011KT 13/10 A3003 RMK A01 T01340103  RH  082%=      5-min Rain = 0
KHO1 240127Z 04015KT 13/10 A3002 RMK A01 T01340102  RH  081%=      5-min Rain = 0
KHO1 240128Z 04012KT 13/10 A3003 RMK A01 T01340102  RH  081%=      5-min Rain = 0
KHO1 240129Z 04015KT 13/10 A3002 RMK A01 T01340101  RH  081%=      5-min Rain = 0
KHO1 240130Z 03015KT 13/10 A3002 RMK A01 T01340101  RH  081%=      5-min Rain = 0
KHO1 240131Z 04013KT 13/10 A3002 RMK A01 T01330101  RH  081%=      5-min Rain = 0
KHO1 240132Z 04011KT 13/10 A3003 RMK A01 T01330101  RH  081%=      5-min Rain = 0
KHO1 240133Z 04011KT 13/10 A3003 RMK A01 T01330101  RH  081%=      5-min Rain = 0
KHO1 240134Z 04014KT 13/10 A3003 RMK A01 T01330101  RH  081%=      5-min Rain = 0
KHO1 240135Z 04014KT 13/10 A3003 RMK A01 T01330100  RH  081%=      5-min Rain = 0
KHO1 240136Z 03014KT 13/10 A3003 RMK A01 T01330100  RH  081%=      5-min Rain = 0
KHO1 240137Z 04012KT 13/10 A3003 RMK A01 T01330101  RH  081%=      5-min Rain = 0
KHO1 240138Z 04011KT 13/10 A3003 RMK A01 T01330101  RH  081%=      5-min Rain = 0
KHO1 240139Z 04015KT 13/10 A3003 RMK A01 T01330101  RH  081%=      5-min Rain = 0
KHO1 240140Z 04015KT 13/10 A3003 RMK A01 T01330100  RH  081%=      5-min Rain = 0
KHO1 240141Z 04013KT 13/10 A3003 RMK A01 T01330101  RH  081%=      5-min Rain = 0
KHO1 240142Z 04013G19KT 13/10 A3003 RMK A01 T01330101  RH  081%=      5-min Rain = 0
KHO1 240143Z 04014G21KT 13/10 A3003 RMK A01 T01330100  RH  081%=      5-min Rain = 0
KHO1 240144Z 04016KT 13/10 A3003 RMK A01 T01320100  RH  081%=      5-min Rain = 0
KHO1 240145Z 04013KT 13/10 A3004 RMK A01 T01330100  RH  081%=      5-min Rain = 0
KHO1 240146Z 04014KT 13/10 A3004 RMK A01 T01330100  RH  080%=      5-min Rain = 0
KHO1 240147Z 04011G17KT 13/10 A3004 RMK A01 T01330100  RH  080%=      5-min Rain = 0
KHO1 240148Z 04012G17KT 13/10 A3004 RMK A01 T01330100  RH  080%=      5-min Rain = 0
KHO1 240149Z 04011KT 13/10 A3004 RMK A01 T01330100  RH  081%=      5-min Rain = 0
KHO1 240150Z 04014KT 13/10 A3004 RMK A01 T01330100  RH  081%=      5-min Rain = 0
KHO1 240151Z 04015KT 13/10 A3004 RMK A01 T01330100  RH  081%=      5-min Rain = 0
KHO1 240152Z 04012KT 13/10 A3004 RMK A01 T01320101  RH  081%=      5-min Rain = 0
KHO1 240153Z 04012KT 13/10 A3004 RMK A01 T01330101  RH  081%=      5-min Rain = 0
KHO1 240154Z 04011KT 13/10 A3004 RMK A01 T01320102  RH  082%=      5-min Rain = 0
KHO1 240155Z 04014KT 13/10 A3004 RMK A01 T01320101  RH  082%=      5-min Rain = 0
KHO1 240156Z 04013KT 13/10 A3004 RMK A01 T01320101  RH  081%=      5-min Rain = 0
KHO1 240157Z 04014KT 13/10 A3003 RMK A01 T01320101  RH  081%=      5-min Rain = 0
KHO1 240158Z 04012G17KT 13/10 A3003 RMK A01 T01320101  RH  081%=      5-min Rain = 0
KHO1 240159Z 04012KT 13/10 A3003 RMK A01 T01320101  RH  081%=      5-min Rain = 0
KHO1 240200Z 04012G18KT 13/10 A3003 RMK A01 T01320100  RH  081%=      5-min Rain = 0
KHO1 240201Z 04015KT 13/10 A3003 RMK A01 T01310099  RH  081%=      5-min Rain = 0
KHO1 240202Z 04012G18KT 13/10 A3003 RMK A01 T01310098  RH  080%=      5-min Rain = 0
KHO1 240203Z 04014KT 13/10 A3003 RMK A01 T01310097  RH  080%=      5-min Rain = 0
KHO1 240204Z 04016KT 13/10 A3003 RMK A01 T01310096  RH  080%=      5-min Rain = 0
KHO1 240205Z 04011KT 13/10 A3004 RMK A01 T01310097  RH  080%=      5-min Rain = 0
KHO1 240206Z 04011G17KT 13/10 A3004 RMK A01 T01310097  RH  080%=      5-min Rain = 0
KHO1 240207Z 05013G19KT 13/10 A3004 RMK A01 T01310096  RH  079%=      5-min Rain = 0
KHO1 240208Z 05015KT 13/10 A3004 RMK A01 T01310096  RH  079%=      5-min Rain = 0
KHO1 240209Z 04012KT 13/10 A3004 RMK A01 T01310096  RH  079%=      5-min Rain = 0
KHO1 240210Z 04012G17KT 13/10 A3004 RMK A01 T01310096  RH  079%=      5-min Rain = 0
KHO1 240211Z 05012KT 13/10 A3004 RMK A01 T01310096  RH  079%=      5-min Rain = 0
KHO1 240212Z 05012KT 13/10 A3004 RMK A01 T01310096  RH  079%=      5-min Rain = 0
KHO1 240213Z 04011KT 13/10 A3004 RMK A01 T01310096  RH  079%=      5-min Rain = 0
KHO1 240214Z 04011KT 13/10 A3005 RMK A01 T01310097  RH  080%=      5-min Rain = 0
KHO1 240215Z 04010KT 13/10 A3005 RMK A01 T01310097  RH  080%=      5-min Rain = 0
KHO1 240216Z 04015KT 13/10 A3005 RMK A01 T01310095  RH  079%=      5-min Rain = 0
KHO1 240217Z 04012G17KT 13/10 A3005 RMK A01 T01310096  RH  079%=      5-min Rain = 0
KHO1 240218Z 04014G19KT 13/10 A3005 RMK A01 T01310095  RH  079%=      5-min Rain = 0
KHO1 240219Z 04015KT 13/09 A3005 RMK A01 T01310094  RH  078%=      5-min Rain = 0
KHO1 240220Z 05011KT 13/09 A3005 RMK A01 T01310094  RH  079%=      5-min Rain = 0
KHO1 240221Z 04012KT 13/09 A3005 RMK A01 T01310094  RH  078%=      5-min Rain = 0
KHO1 240222Z 04013G19KT 13/09 A3005 RMK A01 T01310094  RH  078%=      5-min Rain = 0
KHO1 240223Z 05011KT 13/09 A3005 RMK A01 T01300094  RH  078%=      5-min Rain = 0
KHO1 240224Z 04013G18KT 13/09 A3005 RMK A01 T01300094  RH  078%=      5-min Rain = 0
KHO1 240225Z 05012G19KT 13/09 A3005 RMK A01 T01300093  RH  078%=      5-min Rain = 0
KHO1 240226Z 05012G17KT 13/09 A3005 RMK A01 T01300094  RH  079%=      5-min Rain = 0
KHO1 240227Z 04015KT 13/09 A3005 RMK A01 T01300094  RH  079%=      5-min Rain = 0
KHO1 240228Z 05011KT 13/09 A3005 RMK A01 T01300094  RH  079%=      5-min Rain = 0
KHO1 240229Z 04010G15KT 13/09 A3005 RMK A01 T01300094  RH  079%=      5-min Rain = 0
KHO1 240230Z 04016KT 13/09 A3005 RMK A01 T01300094  RH  079%=      5-min Rain = 0
KHO1 240231Z 05011KT 13/10 A3005 RMK A01 T01300095  RH  079%=      5-min Rain = 0
KHO1 240232Z 04009KT 13/10 A3005 RMK A01 T01290095  RH  079%=      5-min Rain = 0
KHO1 240233Z 05014KT 13/10 A3005 RMK A01 T01290095  RH  080%=      5-min Rain = 0
KHO1 240234Z 04013G18KT 13/10 A3005 RMK A01 T01290095  RH  080%=      5-min Rain = 0
KHO1 240235Z 04009KT 13/10 A3006 RMK A01 T01290095  RH  080%=      5-min Rain = 0
KHO1 240236Z 05009KT 13/10 A3006 RMK A01 T01290096  RH  080%=      5-min Rain = 0
KHO1 240237Z 05010KT 13/10 A3006 RMK A01 T01290095  RH  080%=      5-min Rain = 0
KHO1 240238Z 05014G19KT 13/09 A3006 RMK A01 T01280094  RH  080%=      5-min Rain = 0
KHO1 240239Z 04012KT 13/09 A3006 RMK A01 T01280094  RH  079%=      5-min Rain = 0
KHO1 240240Z 05013G18KT 13/09 A3007 RMK A01 T01280093  RH  079%=      5-min Rain = 0
KHO1 240241Z 05012KT 13/09 A3007 RMK A01 T01280093  RH  079%=      5-min Rain = 0
KHO1 240242Z 04013KT 13/09 A3007 RMK A01 T01280094  RH  079%=      5-min Rain = 0
KHO1 240243Z 04013KT 13/09 A3008 RMK A01 T01280093  RH  079%=      5-min Rain = 0
KHO1 240244Z 04009KT 13/09 A3008 RMK A01 T01290094  RH  080%=      5-min Rain = 0
KHO1 240245Z 04011KT 13/09 A3008 RMK A01 T01290094  RH  080%=      5-min Rain = 0
KHO1 240246Z 05010KT 13/09 A3008 RMK A01 T01290094  RH  080%=      5-min Rain = 0
KHO1 240247Z 04009KT 13/10 A3008 RMK A01 T01290095  RH  080%=      5-min Rain = 0
KHO1 240248Z 04011KT 13/10 A3008 RMK A01 T01290095  RH  080%=      5-min Rain = 0
KHO1 240249Z 04012KT 13/09 A3008 RMK A01 T01290094  RH  080%=      5-min Rain = 0
KHO1 240250Z 04012KT 13/09 A3008 RMK A01 T01290094  RH  079%=      5-min Rain = 0
KHO1 240251Z 04013KT 13/09 A3008 RMK A01 T01290094  RH  080%=      5-min Rain = 0
KHO1 240252Z 04009KT 13/09 A3008 RMK A01 T01290094  RH  080%=      5-min Rain = 0
KHO1 240253Z 04010KT 13/10 A3008 RMK A01 T01290095  RH  080%=      5-min Rain = 0
KHO1 240254Z 04010KT 13/10 A3008 RMK A01 T01290095  RH  080%=      5-min Rain = 0
KHO1 240255Z 04011KT 13/10 A3007 RMK A01 T01290095  RH  080%=      5-min Rain = 0
KHO1 240256Z 05010KT 13/10 A3007 RMK A01 T01290095  RH  080%=      5-min Rain = 0
KHO1 240257Z 04010G15KT 13/10 A3007 RMK A01 T01290095  RH  080%=      5-min Rain = 0
KHO1 240258Z 04011KT 13/09 A3007 RMK A01 T01280093  RH  079%=      5-min Rain = 0
KHO1 240259Z 04013G18KT 13/09 A3007 RMK A01 T01280093  RH  079%=      5-min Rain = 0
KHO1 240300Z 04014KT 13/09 A3007 RMK A01 T01280092  RH  079%=      5-min Rain = 0
KHO1 240301Z 04010KT 13/09 A3007 RMK A01 T01280093  RH  079%=      5-min Rain = 0
KHO1 240302Z 03012KT 13/09 A3007 RMK A01 T01280093  RH  079%=      5-min Rain = 0
KHO1 240303Z 03014KT 13/09 A3006 RMK A01 T01270093  RH  080%=      5-min Rain = 0
KHO1 240304Z 03015KT 13/09 A3006 RMK A01 T01270093  RH  080%=      5-min Rain = 0
KHO1 240305Z 03014KT 13/09 A3006 RMK A01 T01270093  RH  080%=      5-min Rain = 0
KHO1 240306Z 03015KT 13/09 A3006 RMK A01 T01260093  RH  080%=      5-min Rain = 0
KHO1 240307Z 04010KT 13/09 A3005 RMK A01 T01260093  RH  080%=      5-min Rain = 0
KHO1 240308Z 03010KT 13/09 A3005 RMK A01 T01260094  RH  081%=      5-min Rain = 0
KHO1 240309Z 03013KT 13/09 A3005 RMK A01 T01250094  RH  081%=      5-min Rain = 0
KHO1 240310Z 03015KT 13/09 A3005 RMK A01 T01250093  RH  081%=      5-min Rain = 0
KHO1 240311Z 03013KT 13/09 A3005 RMK A01 T01250093  RH  081%=      5-min Rain = 0
KHO1 240312Z 03012KT 13/09 A3005 RMK A01 T01250093  RH  081%=      5-min Rain = 0
KHO1 240313Z 03013KT 13/09 A3005 RMK A01 T01250094  RH  081%=      5-min Rain = 0
KHO1 240314Z 03013KT 12/09 A3005 RMK A01 T01240094  RH  081%=      5-min Rain = 0
KHO1 240315Z 03013KT 12/09 A3005 RMK A01 T01240093  RH  081%=      5-min Rain = 0
KHO1 240316Z 03012KT 12/09 A3005 RMK A01 T01240093  RH  081%=      5-min Rain = 0
KHO1 240317Z 04011KT 12/09 A3005 RMK A01 T01240094  RH  082%=      5-min Rain = 0
KHO1 240318Z 03010KT 12/09 A3006 RMK A01 T01240094  RH  082%=      5-min Rain = 0
KHO1 240319Z 03009KT 12/09 A3006 RMK A01 T01240094  RH  082%=      5-min Rain = 0
KHO1 240320Z 04009KT 12/09 A3006 RMK A01 T01240094  RH  082%=      5-min Rain = 0
KHO1 240321Z 03010KT 12/09 A3006 RMK A01 T01240093  RH  082%=      5-min Rain = 0
KHO1 240322Z 03011KT 12/09 A3006 RMK A01 T01240094  RH  082%=      5-min Rain = 0
KHO1 240323Z 03012KT 12/09 A3006 RMK A01 T01230093  RH  082%=      5-min Rain = 0
KHO1 240324Z 03011KT 12/09 A3006 RMK A01 T01230093  RH  082%=      5-min Rain = 0
KHO1 240325Z 03012KT 12/09 A3006 RMK A01 T01230093  RH  082%=      5-min Rain = 0
KHO1 240326Z 03010KT 12/09 A3006 RMK A01 T01230093  RH  082%=      5-min Rain = 0
KHO1 240327Z 03011KT 12/09 A3006 RMK A01 T01230093  RH  082%=      5-min Rain = 0
KHO1 240328Z 03012KT 12/09 A3006 RMK A01 T01230093  RH  082%=      5-min Rain = 0
KHO1 240329Z 03011KT 12/09 A3006 RMK A01 T01230094  RH  082%=      5-min Rain = 0
KHO1 240330Z 03011KT 12/09 A3006 RMK A01 T01230094  RH  082%=      5-min Rain = 0
KHO1 240331Z 03013KT 12/09 A3006 RMK A01 T01230093  RH  082%=      5-min Rain = 0
KHO1 240332Z 03011KT 12/09 A3006 RMK A01 T01230094  RH  082%=      5-min Rain = 0
KHO1 240333Z 04013KT 12/09 A3006 RMK A01 T01230094  RH  082%=      5-min Rain = 0
KHO1 240334Z 03014KT 12/09 A3006 RMK A01 T01230093  RH  082%=      5-min Rain = 0
KHO1 240335Z 04013KT 12/09 A3006 RMK A01 T01230093  RH  082%=      5-min Rain = 0
KHO1 240336Z 03013KT 12/09 A3006 RMK A01 T01230093  RH  082%=      5-min Rain = 0
KHO1 240337Z 04011KT 12/09 A3006 RMK A01 T01230093  RH  082%=      5-min Rain = 0
KHO1 240338Z 03011KT 12/09 A3007 RMK A01 T01230094  RH  082%=      5-min Rain = 0
KHO1 240339Z 03011KT 12/09 A3007 RMK A01 T01220094  RH  083%=      5-min Rain = 0
KHO1 240340Z 03012KT 12/09 A3007 RMK A01 T01220094  RH  083%=      5-min Rain = 0
KHO1 240341Z 03011KT 12/09 A3007 RMK A01 T01220094  RH  083%=      5-min Rain = 0
KHO1 240342Z 03011KT 12/09 A3007 RMK A01 T01220094  RH  083%=      5-min Rain = 0
KHO1 240343Z 03011KT 12/09 A3007 RMK A01 T01220094  RH  083%=      5-min Rain = 0
KHO1 240344Z 03010KT 12/10 A3007 RMK A01 T01220095  RH  083%=      5-min Rain = 0
KHO1 240345Z 02009KT 12/10 A3007 RMK A01 T01220095  RH  084%=      5-min Rain = 0
KHO1 240346Z 02010KT 12/10 A3007 RMK A01 T01220095  RH  084%=      5-min Rain = 0
KHO1 240347Z 03010KT 12/10 A3007 RMK A01 T01220095  RH  084%=      5-min Rain = 0
KHO1 240348Z 03011KT 12/10 A3007 RMK A01 T01210095  RH  084%=      5-min Rain = 0
KHO1 240349Z 04011KT 12/10 A3007 RMK A01 T01210095  RH  084%=      5-min Rain = 0
KHO1 240350Z 03011KT 12/09 A3007 RMK A01 T01210094  RH  084%=      5-min Rain = 0
KHO1 240351Z 03011KT 12/09 A3007 RMK A01 T01210094  RH  083%=      5-min Rain = 0
KHO1 240352Z 03010KT 12/09 A3007 RMK A01 T01210094  RH  083%=      5-min Rain = 0
KHO1 240353Z 03012KT 12/09 A3007 RMK A01 T01210094  RH  083%=      5-min Rain = 0
KHO1 240354Z 04012KT 12/09 A3007 RMK A01 T01220093  RH  083%=      5-min Rain = 0
KHO1 240355Z 04009KT 12/09 A3007 RMK A01 T01220094  RH  083%=      5-min Rain = 0
KHO1 240356Z 04009KT 12/09 A3007 RMK A01 T01220094  RH  083%=      5-min Rain = 0
KHO1 240357Z 04008KT 12/09 A3007 RMK A01 T01220093  RH  083%=      5-min Rain = 0
KHO1 240358Z 04010KT 12/09 A3007 RMK A01 T01220093  RH  082%=      5-min Rain = 0
KHO1 240359Z 04011KT 12/09 A3007 RMK A01 T01220092  RH  082%=      5-min Rain = 0
KHO1 240400Z 04011KT 12/09 A3007 RMK A01 T01220092  RH  082%=      5-min Rain = 0
KHO1 240401Z 04009KT 12/09 A3007 RMK A01 T01220092  RH  082%=      5-min Rain = 0
KHO1 240402Z 04008KT 12/09 A3007 RMK A01 T01230093  RH  082%=      5-min Rain = 0
KHO1 240403Z 04009KT 12/09 A3007 RMK A01 T01230093  RH  082%=      5-min Rain = 0
KHO1 240404Z 04011KT 12/09 A3007 RMK A01 T01220092  RH  081%=      5-min Rain = 0
KHO1 240405Z 04013KT 12/09 A3007 RMK A01 T01220091  RH  081%=      5-min Rain = 0
KHO1 240406Z 03011KT 12/09 A3007 RMK A01 T01220091  RH  081%=      5-min Rain = 0
KHO1 240407Z 03010KT 12/09 A3007 RMK A01 T01220092  RH  081%=      5-min Rain = 0
KHO1 240408Z 03012KT 12/09 A3006 RMK A01 T01220092  RH  081%=      5-min Rain = 0
KHO1 240409Z 03013KT 12/09 A3006 RMK A01 T01220091  RH  081%=      5-min Rain = 0
KHO1 240410Z 04013KT 12/09 A3006 RMK A01 T01220090  RH  081%=      5-min Rain = 0
KHO1 240411Z 04011KT 12/09 A3006 RMK A01 T01220090  RH  081%=      5-min Rain = 0
KHO1 240412Z 04011KT 12/09 A3006 RMK A01 T01220090  RH  081%=      5-min Rain = 0
KHO1 240413Z 04011KT 12/09 A3006 RMK A01 T01210090  RH  081%=      5-min Rain = 0
KHO1 240414Z 04011KT 12/09 A3006 RMK A01 T01210090  RH  081%=      5-min Rain = 0
KHO1 240415Z 04010KT 12/09 A3006 RMK A01 T01210090  RH  081%=      5-min Rain = 0
KHO1 240416Z 04011KT 12/09 A3006 RMK A01 T01210090  RH  081%=      5-min Rain = 0
KHO1 240417Z 04010KT 12/09 A3006 RMK A01 T01200090  RH  081%=      5-min Rain = 0
KHO1 240418Z 04012KT 12/09 A3006 RMK A01 T01200089  RH  081%=      5-min Rain = 0
KHO1 240419Z 05009KT 12/09 A3006 RMK A01 T01200089  RH  081%=      5-min Rain = 0
KHO1 240420Z 04011KT 12/09 A3006 RMK A01 T01200089  RH  081%=      5-min Rain = 0
KHO1 240421Z 05010KT 12/09 A3006 RMK A01 T01200089  RH  081%=      5-min Rain = 0
KHO1 240422Z 04009KT 12/09 A3006 RMK A01 T01200089  RH  082%=      5-min Rain = 0
KHO1 240423Z 04008KT 12/09 A3006 RMK A01 T01200089  RH  082%=      5-min Rain = 0
KHO1 240424Z 05009G15KT 12/09 A3006 RMK A01 T01190089  RH  082%=      5-min Rain = 0
KHO1 240425Z 05009G14KT 12/09 A3006 RMK A01 T01190089  RH  081%=      5-min Rain = 0
KHO1 240426Z 05009KT 12/09 A3006 RMK A01 T01190089  RH  082%=      5-min Rain = 0
KHO1 240427Z 05010KT 12/09 A3006 RMK A01 T01190088  RH  081%=      5-min Rain = 0
KHO1 240428Z 05007KT 12/09 A3006 RMK A01 T01190089  RH  082%=      5-min Rain = 0
KHO1 240429Z 05007KT 12/09 A3006 RMK A01 T01190088  RH  082%=      5-min Rain = 0
KHO1 240430Z 05008KT 12/09 A3006 RMK A01 T01190088  RH  082%=      5-min Rain = 0
KHO1 240431Z 05008KT 12/09 A3005 RMK A01 T01190088  RH  082%=      5-min Rain = 0
KHO1 240432Z 04010KT 12/09 A3005 RMK A01 T01180088  RH  082%=      5-min Rain = 0
KHO1 240433Z 05008KT 12/09 A3005 RMK A01 T01180088  RH  082%=      5-min Rain = 0
KHO1 240434Z 04008KT 12/09 A3005 RMK A01 T01180088  RH  082%=      5-min Rain = 0
KHO1 240435Z 04009KT 12/09 A3005 RMK A01 T01180088  RH  082%=      5-min Rain = 0
KHO1 240436Z 04010KT 12/09 A3005 RMK A01 T01170089  RH  082%=      5-min Rain = 0
KHO1 240437Z 04011KT 12/09 A3005 RMK A01 T01170088  RH  082%=      5-min Rain = 0
KHO1 240438Z 04010KT 12/09 A3005 RMK A01 T01170088  RH  083%=      5-min Rain = 0
KHO1 240439Z 03009KT 12/09 A3005 RMK A01 T01170089  RH  083%=      5-min Rain = 0
KHO1 240440Z 04011KT 12/09 A3005 RMK A01 T01170088  RH  083%=      5-min Rain = 0
KHO1 240441Z 04011KT 12/09 A3005 RMK A01 T01170088  RH  083%=      5-min Rain = 0
KHO1 240442Z 04013KT 12/09 A3005 RMK A01 T01170088  RH  083%=      5-min Rain = 0
KHO1 240443Z 04011KT 12/09 A3005 RMK A01 T01170088  RH  083%=      5-min Rain = 0
KHO1 240444Z 04012KT 12/09 A3004 RMK A01 T01160088  RH  083%=      5-min Rain = 0
KHO1 240445Z 04012KT 12/09 A3004 RMK A01 T01160088  RH  083%=      5-min Rain = 0
KHO1 240446Z 04011KT 12/09 A3004 RMK A01 T01160089  RH  083%=      5-min Rain = 0
KHO1 240447Z 03013KT 12/09 A3004 RMK A01 T01160089  RH  083%=      5-min Rain = 0
KHO1 240448Z 03011KT 12/09 A3004 RMK A01 T01160089  RH  084%=      5-min Rain = 0
KHO1 240449Z 03012KT 12/09 A3004 RMK A01 T01150089  RH  084%=      5-min Rain = 0
KHO1 240450Z 03011KT 12/09 A3004 RMK A01 T01150089  RH  084%=      5-min Rain = 0
KHO1 240451Z 04008KT 12/09 A3004 RMK A01 T01150089  RH  084%=      5-min Rain = 0
KHO1 240452Z 04008KT 11/09 A3004 RMK A01 T01140089  RH  085%=      5-min Rain = 0
KHO1 240453Z 04008KT 11/09 A3004 RMK A01 T01140089  RH  085%=      5-min Rain = 0
KHO1 240454Z 04009KT 11/09 A3004 RMK A01 T01140089  RH  085%=      5-min Rain = 0
KHO1 240455Z 04009KT 11/09 A3004 RMK A01 T01130090  RH  085%=      5-min Rain = 0
KHO1 240456Z 03010KT 11/09 A3004 RMK A01 T01140090  RH  085%=      5-min Rain = 0
KHO1 240457Z 04010KT 11/09 A3004 RMK A01 T01140090  RH  085%=      5-min Rain = 0
KHO1 240458Z 04008KT 11/09 A3004 RMK A01 T01140090  RH  085%=      5-min Rain = 0
KHO1 240459Z 03010KT 11/09 A3004 RMK A01 T01130090  RH  085%=      5-min Rain = 0

Page generated in 0.1595 seconds.